SWR284 FAOR-LSZH
Flight info
| Callsign | SWR284 |
|---|---|
| Flight time | 10h 16m |
| Altitude | 34000 |
| Route | VASUR3A VASUR UZ21 ITROL UQ25 RUDAS UT941 IBRIT UM998 PIMTA/N0493F360 UM998 BOD/N0482F380 UM998 CSO UM2 CIRTA DCT BUKID DCT NEGAT DCT OMEDA DCT RAPUR DCT TORTU DCT ERTEV DCT CANNE Z651 KELIP |
| Aircraft | B77W/H-SDE1E2E3FGHIJ2J3J4J5M1RWXY/LB1D1 |
Departure
| Time | 2026-04-25 16:47 |
|---|---|
| Airport | O.R. Tambo International Airport (FAOR) |
Arrival
| Time | 2026-04-26 03:03 |
|---|---|
| Airport | Zürich Airport (LSZH) |
| Time | Latitude | Longitude | Altitude | Speed | Heading |
|---|---|---|---|---|---|
| 2026-04-25 16:24 | -26.13018 | 28.23365 | 5551 ft | 0 kts | 322° |
| 2026-04-25 16:36 | -26.13021 | 28.23368 | 5556 ft | 3 kts | 322° |
| 2026-04-25 16:37 | -26.13043 | 28.23386 | 5551 ft | 4 kts | 322° |
| 2026-04-25 16:37 | -26.13063 | 28.23404 | 5551 ft | 4 kts | 322° |
| 2026-04-25 16:37 | -26.13086 | 28.23418 | 5551 ft | 4 kts | 354° |
| 2026-04-25 16:37 | -26.13113 | 28.23416 | 5551 ft | 4 kts | 7° |
| 2026-04-25 16:38 | -26.13139 | 28.23413 | 5554 ft | 4 kts | 6° |
| 2026-04-25 16:38 | -26.13166 | 28.23410 | 5551 ft | 3 kts | 6° |
| 2026-04-25 16:38 | -26.13168 | 28.23409 | 5551 ft | 0 kts | 6° |
| 2026-04-25 16:40 | -26.13159 | 28.23410 | 5551 ft | 4 kts | 6° |
| 2026-04-25 16:40 | -26.13125 | 28.23437 | 5555 ft | 9 kts | 65° |
| 2026-04-25 16:41 | -26.13120 | 28.23528 | 5551 ft | 15 kts | 95° |
| 2026-04-25 16:41 | -26.13128 | 28.23611 | 5553 ft | 17 kts | 96° |
| 2026-04-25 16:41 | -26.13354 | 28.23631 | 5554 ft | 17 kts | 196° |
| 2026-04-25 16:42 | -26.13466 | 28.23596 | 5554 ft | 17 kts | 195° |
| 2026-04-25 16:42 | -26.13577 | 28.23561 | 5556 ft | 17 kts | 196° |
| 2026-04-25 16:42 | -26.13688 | 28.23526 | 5559 ft | 17 kts | 196° |
| 2026-04-25 16:42 | -26.13800 | 28.23491 | 5563 ft | 17 kts | 196° |
| 2026-04-25 16:43 | -26.13911 | 28.23455 | 5566 ft | 17 kts | 195° |
| 2026-04-25 16:43 | -26.14022 | 28.23421 | 5567 ft | 17 kts | 195° |
| 2026-04-25 16:43 | -26.14134 | 28.23387 | 5569 ft | 17 kts | 195° |
| 2026-04-25 16:43 | -26.14244 | 28.23354 | 5569 ft | 17 kts | 195° |
| 2026-04-25 16:44 | -26.14356 | 28.23321 | 5570 ft | 17 kts | 195° |
| 2026-04-25 16:44 | -26.14468 | 28.23288 | 5569 ft | 17 kts | 192° |
| 2026-04-25 16:44 | -26.14573 | 28.23296 | 5570 ft | 13 kts | 153° |
| 2026-04-25 16:44 | -26.14613 | 28.23376 | 5570 ft | 11 kts | 104° |
| 2026-04-25 16:45 | -26.14613 | 28.23445 | 5570 ft | 8 kts | 48° |
| 2026-04-25 16:45 | -26.14557 | 28.23463 | 5570 ft | 8 kts | 15° |
| 2026-04-25 16:45 | -26.14434 | 28.23501 | 5570 ft | 39 kts | 15° |
| 2026-04-25 16:45 | -26.13950 | 28.23650 | 5569 ft | 105 kts | 15° |
| 2026-04-25 16:46 | -26.13059 | 28.23926 | 5551 ft | 163 kts | 15° |
| 2026-04-25 16:46 | -26.11809 | 28.24312 | 5544 ft | 206 kts | 16° |
| 2026-04-25 16:46 | -26.10387 | 28.24760 | 5823 ft | 216 kts | 15° |
| 2026-04-25 16:46 | -26.09423 | 28.25069 | 6137 ft | 220 kts | 15° |
| 2026-04-25 16:47 | -26.07454 | 28.25724 | 6892 ft | 222 kts | 15° |
| 2026-04-25 16:47 | -26.05973 | 28.26213 | 7412 ft | 225 kts | 15° |
| 2026-04-25 16:47 | -26.04405 | 28.26593 | 7605 ft | 238 kts | 358° |
| 2026-04-25 16:47 | -26.02747 | 28.26216 | 7819 ft | 250 kts | 334° |
| 2026-04-25 16:48 | -26.01276 | 28.25147 | 8182 ft | 261 kts | 316° |
| 2026-04-25 16:48 | -26.00071 | 28.23586 | 8386 ft | 275 kts | 302° |
| 2026-04-25 16:48 | -25.99149 | 28.21754 | 9134 ft | 272 kts | 297° |
| 2026-04-25 16:48 | -25.98239 | 28.19868 | 9580 ft | 281 kts | 297° |
| 2026-04-25 16:49 | -25.97314 | 28.17920 | 10002 ft | 287 kts | 298° |
| 2026-04-25 16:49 | -25.96129 | 28.16113 | 10519 ft | 292 kts | 312° |
| 2026-04-25 16:49 | -25.94675 | 28.14526 | 11110 ft | 299 kts | 315° |
| 2026-04-25 16:49 | -25.93096 | 28.12882 | 11261 ft | 322 kts | 317° |
| 2026-04-25 16:50 | -25.91304 | 28.11243 | 11446 ft | 345 kts | 321° |
| 2026-04-25 16:50 | -25.89288 | 28.09640 | 11635 ft | 367 kts | 325° |
| 2026-04-25 16:50 | -25.87128 | 28.08110 | 12098 ft | 379 kts | 327° |
| 2026-04-25 16:50 | -25.84839 | 28.06606 | 12733 ft | 385 kts | 329° |
| 2026-04-25 16:51 | -25.82490 | 28.05132 | 13479 ft | 390 kts | 330° |
| 2026-04-25 16:51 | -25.80104 | 28.03676 | 14278 ft | 392 kts | 330° |
| 2026-04-25 16:51 | -25.77699 | 28.02223 | 15020 ft | 396 kts | 330° |
| 2026-04-25 16:51 | -25.76091 | 28.01254 | 15502 ft | 398 kts | 330° |
| 2026-04-25 16:52 | -25.72814 | 27.99278 | 16439 ft | 403 kts | 330° |
| 2026-04-25 16:52 | -25.70338 | 27.97782 | 17138 ft | 407 kts | 330° |
| 2026-04-25 16:52 | -25.67879 | 27.96296 | 17822 ft | 410 kts | 330° |
| 2026-04-25 16:52 | -25.65364 | 27.94775 | 18478 ft | 413 kts | 330° |
| 2026-04-25 16:53 | -25.60270 | 27.91697 | 19708 ft | 421 kts | 330° |
| 2026-04-25 16:53 | -25.57687 | 27.90138 | 20301 ft | 425 kts | 330° |
| 2026-04-25 16:53 | -25.55122 | 27.88496 | 20851 ft | 427 kts | 325° |
| 2026-04-25 16:54 | -25.52707 | 27.86554 | 21387 ft | 431 kts | 320° |
| 2026-04-25 16:54 | -25.50374 | 27.84460 | 21960 ft | 433 kts | 319° |
| 2026-04-25 16:54 | -25.48084 | 27.82348 | 22521 ft | 436 kts | 319° |
| 2026-04-25 16:54 | -25.45741 | 27.80200 | 23038 ft | 439 kts | 319° |
| 2026-04-25 16:55 | -25.43365 | 27.78060 | 23529 ft | 442 kts | 319° |
| 2026-04-25 16:55 | -25.40957 | 27.75923 | 24013 ft | 446 kts | 319° |
| 2026-04-25 16:55 | -25.38517 | 27.73782 | 24496 ft | 449 kts | 320° |
| 2026-04-25 16:55 | -25.36055 | 27.71637 | 24962 ft | 452 kts | 320° |
| 2026-04-25 16:56 | -25.33574 | 27.69481 | 25405 ft | 456 kts | 319° |
| 2026-04-25 16:56 | -25.31070 | 27.67308 | 25849 ft | 459 kts | 319° |
| 2026-04-25 16:56 | -25.28587 | 27.65153 | 26280 ft | 462 kts | 319° |
| 2026-04-25 16:56 | -25.26053 | 27.62953 | 26699 ft | 465 kts | 319° |
| 2026-04-25 16:57 | -25.23503 | 27.60741 | 27092 ft | 468 kts | 319° |
| 2026-04-25 16:57 | -25.21805 | 27.59268 | 27347 ft | 469 kts | 319° |
| 2026-04-25 16:57 | -25.18355 | 27.56274 | 27815 ft | 474 kts | 318° |
| 2026-04-25 16:57 | -25.15758 | 27.54022 | 28173 ft | 476 kts | 318° |
| 2026-04-25 16:58 | -25.13145 | 27.51758 | 28510 ft | 478 kts | 318° |
| 2026-04-25 16:58 | -25.10519 | 27.49486 | 28863 ft | 481 kts | 318° |
| 2026-04-25 16:58 | -25.07881 | 27.47204 | 29163 ft | 483 kts | 318° |
| 2026-04-25 16:58 | -25.05264 | 27.44940 | 29454 ft | 486 kts | 318° |
| 2026-04-25 16:59 | -25.02633 | 27.42600 | 29732 ft | 486 kts | 315° |
| 2026-04-25 16:59 | -25.00099 | 27.40129 | 29993 ft | 487 kts | 314° |
| 2026-04-25 16:59 | -24.97575 | 27.37632 | 30315 ft | 488 kts | 314° |
| 2026-04-25 16:59 | -24.95057 | 27.35133 | 30706 ft | 487 kts | 313° |
| 2026-04-25 17:00 | -24.92541 | 27.32639 | 31080 ft | 487 kts | 313° |
| 2026-04-25 17:00 | -24.90018 | 27.30147 | 31365 ft | 488 kts | 313° |
| 2026-04-25 17:00 | -24.87486 | 27.27655 | 31633 ft | 489 kts | 313° |
| 2026-04-25 17:00 | -24.84947 | 27.25158 | 31919 ft | 489 kts | 313° |
| 2026-04-25 17:01 | -24.82446 | 27.22706 | 32264 ft | 488 kts | 313° |
| 2026-04-25 17:01 | -24.79906 | 27.20218 | 32552 ft | 488 kts | 312° |
| 2026-04-25 17:01 | -24.77371 | 27.17731 | 32786 ft | 490 kts | 312° |
| 2026-04-25 17:01 | -24.74823 | 27.15235 | 33018 ft | 491 kts | 312° |
| 2026-04-25 17:02 | -24.72274 | 27.12739 | 33297 ft | 490 kts | 312° |
| 2026-04-25 17:02 | -24.69725 | 27.10246 | 33583 ft | 490 kts | 312° |
| 2026-04-25 17:02 | -24.67174 | 27.07754 | 33823 ft | 491 kts | 311° |
| 2026-04-25 17:02 | -24.65486 | 27.06104 | 33984 ft | 491 kts | 311° |
| 2026-04-25 17:03 | -24.62099 | 27.02794 | 34172 ft | 494 kts | 311° |
| 2026-04-25 17:03 | -24.56954 | 26.97772 | 34245 ft | 494 kts | 311° |
| 2026-04-25 17:04 | -24.51833 | 26.92782 | 34241 ft | 491 kts | 311° |
| 2026-04-25 17:04 | -24.46737 | 26.87816 | 34246 ft | 489 kts | 311° |
| 2026-04-25 17:05 | -24.41681 | 26.82900 | 34247 ft | 489 kts | 311° |
| 2026-04-25 17:05 | -24.34020 | 26.75457 | 34256 ft | 492 kts | 311° |
| 2026-04-25 17:06 | -24.28703 | 26.70683 | 34256 ft | 498 kts | 316° |
| 2026-04-25 17:06 | -24.23096 | 26.66194 | 34248 ft | 500 kts | 317° |
| 2026-04-25 17:07 | -24.17509 | 26.61733 | 34246 ft | 501 kts | 316° |
| 2026-04-25 17:07 | -24.11895 | 26.57208 | 34243 ft | 501 kts | 316° |
| 2026-04-25 17:08 | -24.06278 | 26.52672 | 34243 ft | 502 kts | 316° |
| 2026-04-25 17:08 | -24.00660 | 26.48138 | 34244 ft | 502 kts | 316° |
| 2026-04-25 17:09 | -23.95069 | 26.43639 | 34240 ft | 503 kts | 316° |
| 2026-04-25 17:09 | -23.89435 | 26.39105 | 34240 ft | 503 kts | 316° |
| 2026-04-25 17:10 | -23.83795 | 26.34575 | 34236 ft | 503 kts | 317° |
| 2026-04-25 17:10 | -23.78142 | 26.30073 | 34240 ft | 502 kts | 317° |
| 2026-04-25 17:11 | -23.72498 | 26.25576 | 34240 ft | 502 kts | 317° |
| 2026-04-25 17:11 | -23.66673 | 26.21387 | 34243 ft | 506 kts | 321° |
| 2026-04-25 17:12 | -23.60717 | 26.17292 | 34238 ft | 506 kts | 321° |
| 2026-04-25 17:12 | -23.54804 | 26.13144 | 34241 ft | 504 kts | 319° |
| 2026-04-25 17:13 | -23.50148 | 26.09390 | 34246 ft | 500 kts | 316° |
| 2026-04-25 17:13 | -23.43707 | 26.04042 | 34236 ft | 501 kts | 316° |
| 2026-04-25 17:14 | -23.38148 | 25.99455 | 34227 ft | 502 kts | 316° |
| 2026-04-25 17:14 | -23.32568 | 25.94877 | 34228 ft | 503 kts | 316° |
| 2026-04-25 17:15 | -23.26980 | 25.90299 | 34226 ft | 503 kts | 316° |
| 2026-04-25 17:15 | -23.21419 | 25.85751 | 34235 ft | 504 kts | 316° |
| 2026-04-25 17:16 | -23.15812 | 25.81167 | 34226 ft | 505 kts | 316° |
| 2026-04-25 17:16 | -23.10193 | 25.76582 | 34230 ft | 505 kts | 316° |
| 2026-04-25 17:17 | -23.04568 | 25.71995 | 34233 ft | 505 kts | 316° |
| 2026-04-25 17:17 | -22.98946 | 25.67410 | 34233 ft | 506 kts | 316° |
| 2026-04-25 17:18 | -22.93355 | 25.62860 | 34227 ft | 506 kts | 317° |
| 2026-04-25 17:18 | -22.87645 | 25.58370 | 34234 ft | 507 kts | 318° |
| 2026-04-25 17:19 | -22.81887 | 25.53933 | 34233 ft | 508 kts | 318° |
| 2026-04-25 17:19 | -22.76177 | 25.49519 | 34231 ft | 508 kts | 318° |
| 2026-04-25 17:20 | -22.70431 | 25.45061 | 34226 ft | 508 kts | 318° |
| 2026-04-25 17:20 | -22.64685 | 25.40605 | 34201 ft | 508 kts | 318° |
| 2026-04-25 17:21 | -22.58934 | 25.36151 | 34206 ft | 508 kts | 318° |
| 2026-04-25 17:21 | -22.53183 | 25.31701 | 34205 ft | 508 kts | 318° |
| 2026-04-25 17:22 | -22.48405 | 25.28008 | 34222 ft | 508 kts | 318° |
| 2026-04-25 17:22 | -22.41726 | 25.22848 | 34206 ft | 508 kts | 318° |
| 2026-04-25 17:23 | -22.35978 | 25.18415 | 34203 ft | 508 kts | 318° |
| 2026-04-25 17:23 | -22.30220 | 25.13977 | 34203 ft | 508 kts | 318° |
| 2026-04-25 17:24 | -22.24497 | 25.09571 | 34202 ft | 509 kts | 318° |
| 2026-04-25 17:24 | -22.18729 | 25.05136 | 34199 ft | 510 kts | 318° |
| 2026-04-25 17:25 | -22.12955 | 25.00700 | 34208 ft | 509 kts | 318° |
| 2026-04-25 17:25 | -22.07181 | 24.96269 | 34199 ft | 509 kts | 318° |
| 2026-04-25 17:26 | -22.01409 | 24.91843 | 34203 ft | 509 kts | 318° |
| 2026-04-25 17:26 | -21.95677 | 24.87451 | 34198 ft | 509 kts | 318° |
| 2026-04-25 17:27 | -21.89904 | 24.83035 | 34202 ft | 509 kts | 318° |
| 2026-04-25 17:27 | -21.86049 | 24.80081 | 34209 ft | 509 kts | 318° |
| 2026-04-25 17:28 | -21.78368 | 24.74197 | 34211 ft | 509 kts | 318° |
| 2026-04-25 17:28 | -21.72635 | 24.69804 | 34192 ft | 510 kts | 318° |
| 2026-04-25 17:29 | -21.66854 | 24.65381 | 34195 ft | 510 kts | 318° |
| 2026-04-25 17:29 | -21.61070 | 24.60964 | 34194 ft | 510 kts | 318° |
| 2026-04-25 17:30 | -21.55283 | 24.56550 | 34194 ft | 510 kts | 318° |
| 2026-04-25 17:30 | -21.49536 | 24.52171 | 34193 ft | 510 kts | 318° |
| 2026-04-25 17:31 | -21.43759 | 24.47767 | 34179 ft | 510 kts | 318° |
| 2026-04-25 17:31 | -21.37977 | 24.43363 | 34186 ft | 509 kts | 318° |
| 2026-04-25 17:32 | -21.32190 | 24.38966 | 34184 ft | 510 kts | 318° |
| 2026-04-25 17:32 | -21.26398 | 24.34572 | 34185 ft | 510 kts | 318° |
| 2026-04-25 17:33 | -21.20636 | 24.30204 | 34185 ft | 511 kts | 319° |
| 2026-04-25 17:33 | -21.14833 | 24.25807 | 34179 ft | 511 kts | 319° |
| 2026-04-25 17:34 | -21.09025 | 24.21406 | 34166 ft | 511 kts | 319° |
| 2026-04-25 17:34 | -21.03220 | 24.17013 | 34165 ft | 511 kts | 319° |
| 2026-04-25 17:35 | -20.97449 | 24.12653 | 34166 ft | 511 kts | 319° |
| 2026-04-25 17:35 | -20.91642 | 24.08270 | 34167 ft | 510 kts | 319° |
| 2026-04-25 17:36 | -20.85842 | 24.03896 | 34165 ft | 510 kts | 319° |
| 2026-04-25 17:36 | -20.80046 | 23.99530 | 34155 ft | 510 kts | 319° |
| 2026-04-25 17:37 | -20.74291 | 23.95198 | 34154 ft | 509 kts | 319° |
| 2026-04-25 17:37 | -20.68499 | 23.90841 | 34155 ft | 509 kts | 319° |
| 2026-04-25 17:38 | -20.63684 | 23.87222 | 34158 ft | 509 kts | 319° |
| 2026-04-25 17:38 | -20.56911 | 23.82135 | 34158 ft | 509 kts | 319° |
| 2026-04-25 17:39 | -20.51146 | 23.77813 | 34159 ft | 510 kts | 319° |
| 2026-04-25 17:39 | -20.45336 | 23.73461 | 34155 ft | 510 kts | 319° |
| 2026-04-25 17:40 | -20.39526 | 23.69115 | 34153 ft | 510 kts | 319° |
| 2026-04-25 17:40 | -20.33713 | 23.64773 | 34157 ft | 510 kts | 319° |
| 2026-04-25 17:41 | -20.27945 | 23.60467 | 34152 ft | 509 kts | 319° |
| 2026-04-25 17:41 | -20.22143 | 23.56134 | 34158 ft | 509 kts | 319° |
| 2026-04-25 17:42 | -20.16344 | 23.51810 | 34153 ft | 509 kts | 319° |
| 2026-04-25 17:42 | -20.10540 | 23.47485 | 34159 ft | 510 kts | 319° |
| 2026-04-25 17:43 | -20.04764 | 23.43187 | 34159 ft | 510 kts | 319° |
| 2026-04-25 17:43 | -19.98844 | 23.38991 | 34157 ft | 515 kts | 324° |
| 2026-04-25 17:44 | -19.92301 | 23.35758 | 34164 ft | 521 kts | 332° |
| 2026-04-25 17:44 | -19.85586 | 23.32834 | 34160 ft | 522 kts | 332° |
| 2026-04-25 17:45 | -19.81145 | 23.30885 | 34156 ft | 521 kts | 332° |
| 2026-04-25 17:45 | -19.72247 | 23.26915 | 34160 ft | 522 kts | 332° |
| 2026-04-25 17:46 | -19.65558 | 23.23916 | 34156 ft | 522 kts | 332° |
| 2026-04-25 17:46 | -19.58871 | 23.20922 | 34159 ft | 522 kts | 332° |
| 2026-04-25 17:47 | -19.52182 | 23.17934 | 34158 ft | 522 kts | 332° |
| 2026-04-25 17:47 | -19.45531 | 23.14969 | 34157 ft | 522 kts | 332° |
| 2026-04-25 17:48 | -19.35498 | 23.10496 | 34155 ft | 521 kts | 332° |
| 2026-04-25 17:49 | -19.28814 | 23.07520 | 34157 ft | 521 kts | 332° |
| 2026-04-25 17:49 | -19.22176 | 23.04566 | 34153 ft | 521 kts | 332° |
| 2026-04-25 17:50 | -19.15492 | 23.01596 | 34146 ft | 521 kts | 332° |
| 2026-04-25 17:50 | -19.08817 | 22.98629 | 34147 ft | 520 kts | 332° |
| 2026-04-25 17:51 | -19.02134 | 22.95674 | 34146 ft | 521 kts | 333° |
| 2026-04-25 17:51 | -18.95412 | 22.92794 | 34146 ft | 522 kts | 333° |
| 2026-04-25 17:52 | -18.88727 | 22.89946 | 34150 ft | 521 kts | 333° |
| 2026-04-25 17:52 | -18.82003 | 22.87067 | 34152 ft | 522 kts | 333° |
| 2026-04-25 17:53 | -18.75280 | 22.84187 | 34148 ft | 522 kts | 333° |
| 2026-04-25 17:53 | -18.68556 | 22.81310 | 34141 ft | 521 kts | 333° |
| 2026-04-25 17:54 | -18.61898 | 22.78413 | 34139 ft | 521 kts | 332° |
| 2026-04-25 17:54 | -18.55230 | 22.75428 | 34138 ft | 520 kts | 332° |
| 2026-04-25 17:55 | -18.48573 | 22.72440 | 34139 ft | 520 kts | 332° |
| 2026-04-25 17:55 | -18.41918 | 22.69470 | 34141 ft | 519 kts | 333° |
| 2026-04-25 17:56 | -18.35309 | 22.66535 | 34135 ft | 519 kts | 333° |
| 2026-04-25 17:56 | -18.28666 | 22.63585 | 34139 ft | 518 kts | 333° |
| 2026-04-25 17:57 | -18.22029 | 22.60641 | 34138 ft | 517 kts | 333° |
| 2026-04-25 17:57 | -18.15397 | 22.57699 | 34139 ft | 517 kts | 333° |
| 2026-04-25 17:58 | -18.08816 | 22.54780 | 34140 ft | 517 kts | 333° |
| 2026-04-25 17:58 | -18.02195 | 22.51848 | 34138 ft | 516 kts | 333° |
| 2026-04-25 17:59 | -17.95578 | 22.48920 | 34140 ft | 516 kts | 333° |
| 2026-04-25 17:59 | -17.89002 | 22.45923 | 34135 ft | 515 kts | 332° |
| 2026-04-25 18:00 | -17.82515 | 22.42848 | 34130 ft | 515 kts | 332° |
| 2026-04-25 18:00 | -17.75895 | 22.39944 | 34129 ft | 516 kts | 334° |
| 2026-04-25 18:01 | -17.69237 | 22.37131 | 34128 ft | 516 kts | 334° |
| 2026-04-25 18:01 | -17.62581 | 22.34303 | 34129 ft | 516 kts | 334° |
| 2026-04-25 18:02 | -17.55934 | 22.31452 | 34129 ft | 516 kts | 334° |
| 2026-04-25 18:02 | -17.49333 | 22.28613 | 34128 ft | 516 kts | 334° |
| 2026-04-25 18:03 | -17.42683 | 22.25756 | 34129 ft | 516 kts | 334° |
| 2026-04-25 18:03 | -17.36034 | 22.22899 | 34129 ft | 517 kts | 334° |
| 2026-04-25 18:04 | -17.29380 | 22.20043 | 34130 ft | 517 kts | 334° |
| 2026-04-25 18:04 | -17.22767 | 22.17212 | 34130 ft | 517 kts | 334° |
| 2026-04-25 18:05 | -17.16109 | 22.14360 | 34129 ft | 517 kts | 334° |
| 2026-04-25 18:05 | -17.09440 | 22.11507 | 34130 ft | 518 kts | 334° |
| 2026-04-25 18:06 | -17.02770 | 22.08656 | 34129 ft | 518 kts | 334° |
| 2026-04-25 18:06 | -16.96097 | 22.05803 | 34129 ft | 518 kts | 334° |
| 2026-04-25 18:07 | -16.89477 | 22.02979 | 34130 ft | 518 kts | 334° |
| 2026-04-25 18:07 | -16.82804 | 22.00134 | 34129 ft | 518 kts | 334° |
| 2026-04-25 18:08 | -16.76139 | 21.97294 | 34138 ft | 517 kts | 334° |
| 2026-04-25 18:08 | -16.69481 | 21.94459 | 34135 ft | 516 kts | 334° |
| 2026-04-25 18:09 | -16.62892 | 21.91653 | 34135 ft | 515 kts | 335° |
| 2026-04-25 18:09 | -16.56261 | 21.88835 | 34138 ft | 514 kts | 335° |
| 2026-04-25 18:10 | -16.49642 | 21.86022 | 34139 ft | 514 kts | 335° |
| 2026-04-25 18:10 | -16.43020 | 21.83211 | 34138 ft | 514 kts | 335° |
| 2026-04-25 18:11 | -16.36438 | 21.80417 | 34139 ft | 514 kts | 335° |
| 2026-04-25 18:11 | -16.29808 | 21.77606 | 34139 ft | 515 kts | 335° |
| 2026-04-25 18:12 | -16.23171 | 21.74795 | 34138 ft | 515 kts | 335° |
| 2026-04-25 18:12 | -16.16526 | 21.71983 | 34139 ft | 516 kts | 335° |
| 2026-04-25 18:13 | -16.09879 | 21.69168 | 34139 ft | 516 kts | 335° |
| 2026-04-25 18:13 | -16.03269 | 21.66375 | 34139 ft | 517 kts | 335° |
| 2026-04-25 18:14 | -15.93276 | 21.62155 | 34136 ft | 517 kts | 335° |
| 2026-04-25 18:14 | -15.86612 | 21.59344 | 34142 ft | 517 kts | 335° |
| 2026-04-25 18:15 | -15.79944 | 21.56529 | 34139 ft | 518 kts | 335° |
| 2026-04-25 18:15 | -15.73322 | 21.53738 | 34144 ft | 517 kts | 336° |
| 2026-04-25 18:16 | -15.66663 | 21.50936 | 34145 ft | 516 kts | 336° |
| 2026-04-25 18:17 | -15.56678 | 21.46735 | 34149 ft | 516 kts | 336° |
| 2026-04-25 18:17 | -15.50019 | 21.43937 | 34145 ft | 516 kts | 336° |
| 2026-04-25 18:18 | -15.43364 | 21.41144 | 34157 ft | 516 kts | 336° |
| 2026-04-25 18:18 | -15.36757 | 21.38367 | 34153 ft | 516 kts | 336° |
| 2026-04-25 18:19 | -15.30097 | 21.35571 | 34147 ft | 516 kts | 336° |
| 2026-04-25 18:19 | -15.23435 | 21.32780 | 34146 ft | 516 kts | 336° |
| 2026-04-25 18:20 | -15.16778 | 21.29991 | 34146 ft | 516 kts | 336° |
| 2026-04-25 18:20 | -15.10161 | 21.27222 | 34150 ft | 516 kts | 336° |
| 2026-04-25 18:21 | -15.03500 | 21.24435 | 34148 ft | 516 kts | 336° |
| 2026-04-25 18:21 | -14.96837 | 21.21648 | 34149 ft | 516 kts | 336° |
| 2026-04-25 18:22 | -14.90172 | 21.18865 | 34153 ft | 517 kts | 336° |
| 2026-04-25 18:22 | -14.83554 | 21.16104 | 34159 ft | 516 kts | 336° |
| 2026-04-25 18:23 | -14.76893 | 21.13326 | 34152 ft | 516 kts | 336° |
| 2026-04-25 18:23 | -14.70232 | 21.10550 | 34152 ft | 516 kts | 336° |
| 2026-04-25 18:24 | -14.63565 | 21.07772 | 34157 ft | 517 kts | 336° |
| 2026-04-25 18:24 | -14.56901 | 21.04995 | 34158 ft | 517 kts | 336° |
| 2026-04-25 18:25 | -14.50278 | 21.02239 | 34157 ft | 516 kts | 336° |
| 2026-04-25 18:25 | -14.43619 | 20.99468 | 34160 ft | 516 kts | 337° |
| 2026-04-25 18:26 | -14.36959 | 20.96702 | 34164 ft | 516 kts | 337° |
| 2026-04-25 18:26 | -14.30297 | 20.93936 | 34165 ft | 516 kts | 337° |
| 2026-04-25 18:27 | -14.23679 | 20.91188 | 34166 ft | 516 kts | 337° |
| 2026-04-25 18:27 | -14.17016 | 20.88423 | 34166 ft | 516 kts | 337° |
| 2026-04-25 18:28 | -14.10352 | 20.85663 | 34166 ft | 516 kts | 337° |
| 2026-04-25 18:28 | -14.03693 | 20.82907 | 34169 ft | 516 kts | 337° |
| 2026-04-25 18:29 | -13.93709 | 20.78772 | 34163 ft | 515 kts | 337° |
| 2026-04-25 18:30 | -13.80470 | 20.73296 | 34171 ft | 514 kts | 337° |
| 2026-04-25 18:30 | -13.73829 | 20.70554 | 34169 ft | 515 kts | 337° |
| 2026-04-25 18:31 | -13.67224 | 20.67828 | 34177 ft | 515 kts | 337° |
| 2026-04-25 18:31 | -13.60576 | 20.65084 | 34178 ft | 515 kts | 337° |
| 2026-04-25 18:32 | -13.53925 | 20.62343 | 34174 ft | 515 kts | 338° |
| 2026-04-25 18:32 | -13.47276 | 20.59602 | 34176 ft | 515 kts | 337° |
| 2026-04-25 18:33 | -13.40672 | 20.56880 | 34173 ft | 514 kts | 338° |
| 2026-04-25 18:33 | -13.34032 | 20.54149 | 34178 ft | 514 kts | 338° |
| 2026-04-25 18:34 | -13.27398 | 20.51420 | 34175 ft | 514 kts | 338° |
| 2026-04-25 18:34 | -13.20764 | 20.48694 | 34175 ft | 514 kts | 338° |
| 2026-04-25 18:35 | -13.14128 | 20.45967 | 34176 ft | 514 kts | 338° |
| 2026-04-25 18:35 | -13.07531 | 20.43256 | 34171 ft | 514 kts | 338° |
| 2026-04-25 18:36 | -13.00891 | 20.40533 | 34165 ft | 514 kts | 338° |
| 2026-04-25 18:36 | -12.94247 | 20.37809 | 34167 ft | 514 kts | 338° |
| 2026-04-25 18:37 | -12.87612 | 20.35087 | 34166 ft | 514 kts | 338° |
| 2026-04-25 18:37 | -12.80977 | 20.32369 | 34160 ft | 513 kts | 338° |
| 2026-04-25 18:38 | -12.74387 | 20.29671 | 34138 ft | 513 kts | 338° |
| 2026-04-25 18:38 | -12.67764 | 20.26958 | 34127 ft | 513 kts | 338° |
| 2026-04-25 18:39 | -12.61144 | 20.24253 | 34130 ft | 512 kts | 338° |
| 2026-04-25 18:39 | -12.54537 | 20.21553 | 34129 ft | 511 kts | 338° |
| 2026-04-25 18:40 | -12.47938 | 20.18857 | 34127 ft | 510 kts | 338° |
| 2026-04-25 18:40 | -12.41392 | 20.16184 | 34128 ft | 510 kts | 338° |
| 2026-04-25 18:41 | -12.34809 | 20.13497 | 34131 ft | 509 kts | 338° |
| 2026-04-25 18:41 | -12.28225 | 20.10811 | 34128 ft | 509 kts | 338° |
| 2026-04-25 18:42 | -12.23869 | 20.09035 | 34132 ft | 509 kts | 338° |
| 2026-04-25 18:42 | -12.15078 | 20.05453 | 34129 ft | 508 kts | 338° |
| 2026-04-25 18:43 | -12.08563 | 20.02800 | 34128 ft | 507 kts | 338° |
| 2026-04-25 18:43 | -12.02005 | 20.00130 | 34131 ft | 507 kts | 338° |
| 2026-04-25 18:44 | -11.95440 | 19.97458 | 34131 ft | 508 kts | 339° |
| 2026-04-25 18:44 | -11.88864 | 19.94825 | 34124 ft | 507 kts | 338° |
| 2026-04-25 18:45 | -11.82316 | 19.92123 | 34131 ft | 508 kts | 338° |
| 2026-04-25 18:45 | -11.75773 | 19.89513 | 34130 ft | 508 kts | 342° |
| 2026-04-25 18:46 | -11.69000 | 19.87430 | 34138 ft | 509 kts | 344° |
| 2026-04-25 18:46 | -11.62195 | 19.85420 | 34131 ft | 510 kts | 344° |
| 2026-04-25 18:47 | -11.55385 | 19.83391 | 34129 ft | 510 kts | 344° |
| 2026-04-25 18:47 | -11.48621 | 19.81356 | 34130 ft | 510 kts | 344° |
| 2026-04-25 18:48 | -11.41810 | 19.79300 | 34128 ft | 510 kts | 344° |
| 2026-04-25 18:48 | -11.35011 | 19.77249 | 34120 ft | 508 kts | 344° |
| 2026-04-25 18:49 | -11.28251 | 19.75153 | 34139 ft | 507 kts | 343° |
| 2026-04-25 18:49 | -11.21455 | 19.73119 | 34138 ft | 509 kts | 345° |
| 2026-04-25 18:50 | -11.14691 | 19.71112 | 34138 ft | 510 kts | 344° |
| 2026-04-25 18:50 | -11.07875 | 19.69073 | 34141 ft | 511 kts | 344° |
| 2026-04-25 18:51 | -11.03312 | 19.67700 | 34137 ft | 512 kts | 344° |
| 2026-04-25 18:51 | -10.94217 | 19.64965 | 34140 ft | 512 kts | 344° |
| 2026-04-25 18:52 | -10.87418 | 19.62918 | 34139 ft | 513 kts | 344° |
| 2026-04-25 18:52 | -10.80573 | 19.60861 | 34133 ft | 513 kts | 344° |
| 2026-04-25 18:53 | -10.73723 | 19.58804 | 34130 ft | 513 kts | 344° |
| 2026-04-25 18:53 | -10.66869 | 19.56747 | 34129 ft | 513 kts | 344° |
| 2026-04-25 18:54 | -10.57750 | 19.54011 | 34128 ft | 513 kts | 345° |
| 2026-04-25 18:55 | -10.49787 | 19.51623 | 34130 ft | 513 kts | 345° |
| 2026-04-25 18:55 | -10.42934 | 19.49571 | 34129 ft | 514 kts | 345° |
| 2026-04-25 18:56 | -10.36074 | 19.47517 | 34132 ft | 514 kts | 345° |
| 2026-04-25 18:56 | -10.30372 | 19.45810 | 34124 ft | 514 kts | 345° |
| 2026-04-25 18:57 | -10.22388 | 19.43421 | 34121 ft | 515 kts | 345° |
| 2026-04-25 18:57 | -10.16634 | 19.41699 | 34119 ft | 515 kts | 345° |
| 2026-04-25 18:58 | -10.09812 | 19.39656 | 34122 ft | 515 kts | 345° |
| 2026-04-25 18:58 | -9.99493 | 19.36574 | 34122 ft | 515 kts | 345° |
| 2026-04-25 18:59 | -9.84634 | 19.32136 | 34109 ft | 514 kts | 345° |
| 2026-04-25 19:00 | -9.75507 | 19.29413 | 34109 ft | 513 kts | 345° |
| 2026-04-25 19:01 | -9.65241 | 19.26352 | 34108 ft | 512 kts | 345° |
| 2026-04-25 19:01 | -9.58409 | 19.24300 | 34111 ft | 512 kts | 345° |
| 2026-04-25 19:02 | -9.48223 | 19.21223 | 34103 ft | 512 kts | 345° |
| 2026-04-25 19:03 | -9.39136 | 19.18485 | 34101 ft | 512 kts | 345° |
| 2026-04-25 19:03 | -9.31158 | 19.16078 | 34099 ft | 511 kts | 345° |
| 2026-04-25 19:04 | -9.20981 | 19.13015 | 34103 ft | 511 kts | 345° |
| 2026-04-25 19:05 | -9.07363 | 19.08915 | 34096 ft | 510 kts | 345° |
| 2026-04-25 19:06 | -9.00560 | 19.06871 | 34089 ft | 510 kts | 345° |
| 2026-04-25 19:06 | -8.90416 | 19.03819 | 34105 ft | 509 kts | 345° |
| 2026-04-25 19:07 | -8.80234 | 19.00760 | 34100 ft | 509 kts | 345° |
| 2026-04-25 19:08 | -8.70066 | 18.97709 | 34101 ft | 508 kts | 345° |
| 2026-04-25 19:09 | -8.57729 | 18.94006 | 34097 ft | 507 kts | 345° |
| 2026-04-25 19:10 | -8.46443 | 18.90621 | 34091 ft | 507 kts | 345° |
| 2026-04-25 19:10 | -8.39685 | 18.88595 | 34084 ft | 507 kts | 345° |
| 2026-04-25 19:11 | -8.32971 | 18.86581 | 34085 ft | 507 kts | 345° |
| 2026-04-25 19:11 | -8.26224 | 18.84529 | 34080 ft | 506 kts | 345° |
| 2026-04-25 19:12 | -8.19489 | 18.82469 | 34078 ft | 505 kts | 345° |
| 2026-04-25 19:12 | -8.12755 | 18.80413 | 34078 ft | 506 kts | 345° |
| 2026-04-25 19:13 | -8.06070 | 18.78377 | 34075 ft | 505 kts | 345° |
| 2026-04-25 19:13 | -7.99340 | 18.76327 | 34014 ft | 506 kts | 345° |
| 2026-04-25 19:14 | -7.92603 | 18.74275 | 33951 ft | 505 kts | 345° |
| 2026-04-25 19:14 | -7.85885 | 18.72231 | 33943 ft | 504 kts | 345° |
| 2026-04-25 19:15 | -7.79232 | 18.70208 | 33947 ft | 502 kts | 345° |
| 2026-04-25 19:15 | -7.72555 | 18.68178 | 33936 ft | 500 kts | 345° |
| 2026-04-25 19:16 | -7.65893 | 18.66151 | 33946 ft | 500 kts | 345° |
| 2026-04-25 19:16 | -7.59229 | 18.64127 | 33936 ft | 500 kts | 345° |
| 2026-04-25 19:17 | -7.52559 | 18.62101 | 33946 ft | 501 kts | 345° |
| 2026-04-25 19:17 | -7.45933 | 18.60087 | 33944 ft | 501 kts | 345° |
| 2026-04-25 19:18 | -7.39256 | 18.58060 | 33953 ft | 501 kts | 345° |
| 2026-04-25 19:18 | -7.32570 | 18.56030 | 33950 ft | 502 kts | 345° |
| 2026-04-25 19:19 | -7.25886 | 18.54002 | 33945 ft | 502 kts | 345° |
| 2026-04-25 19:19 | -7.19192 | 18.51971 | 33949 ft | 502 kts | 345° |
| 2026-04-25 19:20 | -7.12530 | 18.50029 | 33936 ft | 502 kts | 346° |
| 2026-04-25 19:20 | -7.05800 | 18.48164 | 33945 ft | 501 kts | 346° |
| 2026-04-25 19:21 | -6.99077 | 18.46297 | 33952 ft | 501 kts | 346° |
| 2026-04-25 19:21 | -6.88997 | 18.43472 | 33937 ft | 501 kts | 346° |
| 2026-04-25 19:22 | -6.82332 | 18.41596 | 33941 ft | 501 kts | 346° |
| 2026-04-25 19:23 | -6.72274 | 18.38773 | 33941 ft | 500 kts | 346° |
| 2026-04-25 19:23 | -6.62234 | 18.35956 | 33943 ft | 499 kts | 346° |
| 2026-04-25 19:24 | -6.55551 | 18.34081 | 33954 ft | 498 kts | 346° |
| 2026-04-25 19:25 | -6.42259 | 18.30351 | 33943 ft | 497 kts | 346° |
| 2026-04-25 19:25 | -6.35600 | 18.28456 | 33938 ft | 497 kts | 346° |
| 2026-04-25 19:26 | -6.28946 | 18.26552 | 33941 ft | 497 kts | 346° |
| 2026-04-25 19:26 | -6.22336 | 18.24667 | 33954 ft | 497 kts | 346° |
| 2026-04-25 19:27 | -6.16759 | 18.23096 | 33936 ft | 497 kts | 347° |
| 2026-04-25 19:27 | -6.09010 | 18.20968 | 33952 ft | 497 kts | 347° |
| 2026-04-25 19:28 | -6.02341 | 18.19140 | 33930 ft | 496 kts | 347° |
| 2026-04-25 19:28 | -5.95686 | 18.17306 | 33936 ft | 496 kts | 347° |
| 2026-04-25 19:29 | -5.89077 | 18.15484 | 33933 ft | 496 kts | 347° |
| 2026-04-25 19:29 | -5.82420 | 18.13652 | 33936 ft | 496 kts | 346° |
| 2026-04-25 19:30 | -5.75765 | 18.11820 | 33935 ft | 496 kts | 347° |
| 2026-04-25 19:30 | -5.69111 | 18.09987 | 33949 ft | 496 kts | 347° |
| 2026-04-25 19:31 | -5.62493 | 18.08166 | 33942 ft | 496 kts | 347° |
| 2026-04-25 19:31 | -5.55832 | 18.06332 | 33936 ft | 497 kts | 347° |
| 2026-04-25 19:32 | -5.49161 | 18.04496 | 33952 ft | 497 kts | 346° |
| 2026-04-25 19:32 | -5.43612 | 18.02969 | 33946 ft | 498 kts | 346° |
| 2026-04-25 19:33 | -5.35797 | 18.00805 | 33943 ft | 499 kts | 346° |
| 2026-04-25 19:33 | -5.29160 | 17.98906 | 33951 ft | 499 kts | 346° |
| 2026-04-25 19:34 | -5.22483 | 17.96984 | 33952 ft | 499 kts | 346° |
| 2026-04-25 19:34 | -5.15799 | 17.95072 | 33933 ft | 500 kts | 346° |
| 2026-04-25 19:35 | -5.09119 | 17.93163 | 33935 ft | 499 kts | 346° |
| 2026-04-25 19:35 | -5.02481 | 17.91266 | 33937 ft | 499 kts | 346° |
| 2026-04-25 19:36 | -4.95800 | 17.89354 | 33936 ft | 500 kts | 346° |
| 2026-04-25 19:36 | -4.89108 | 17.87447 | 33933 ft | 500 kts | 346° |
| 2026-04-25 19:37 | -4.82403 | 17.85541 | 33932 ft | 501 kts | 346° |
| 2026-04-25 19:37 | -4.75693 | 17.83661 | 33935 ft | 501 kts | 346° |
| 2026-04-25 19:38 | -4.69014 | 17.81798 | 33947 ft | 502 kts | 346° |
| 2026-04-25 19:38 | -4.62287 | 17.79918 | 33930 ft | 502 kts | 345° |
| 2026-04-25 19:39 | -4.55549 | 17.78031 | 33936 ft | 503 kts | 345° |
| 2026-04-25 19:39 | -4.48806 | 17.76143 | 33934 ft | 504 kts | 345° |
| 2026-04-25 19:40 | -4.42097 | 17.74263 | 33933 ft | 504 kts | 345° |
| 2026-04-25 19:40 | -4.35338 | 17.72373 | 33955 ft | 504 kts | 345° |
| 2026-04-25 19:41 | -4.28576 | 17.70483 | 33961 ft | 505 kts | 345° |
| 2026-04-25 19:41 | -4.22952 | 17.68909 | 33948 ft | 505 kts | 345° |
| 2026-04-25 19:42 | -4.15042 | 17.66695 | 33925 ft | 505 kts | 345° |
| 2026-04-25 19:42 | -4.08323 | 17.64816 | 33925 ft | 504 kts | 345° |
| 2026-04-25 19:43 | -4.01567 | 17.62918 | 33924 ft | 504 kts | 345° |
| 2026-04-25 19:43 | -3.94815 | 17.61017 | 33924 ft | 504 kts | 345° |
| 2026-04-25 19:44 | -3.88060 | 17.59118 | 33926 ft | 504 kts | 345° |
| 2026-04-25 19:44 | -3.81348 | 17.57232 | 33927 ft | 505 kts | 345° |
| 2026-04-25 19:45 | -3.74590 | 17.55335 | 33927 ft | 504 kts | 345° |
| 2026-04-25 19:45 | -3.67835 | 17.53434 | 33927 ft | 505 kts | 345° |
| 2026-04-25 19:46 | -3.61072 | 17.51535 | 33926 ft | 505 kts | 345° |
| 2026-04-25 19:46 | -3.54356 | 17.49652 | 33927 ft | 504 kts | 345° |
| 2026-04-25 19:47 | -3.47597 | 17.47750 | 33925 ft | 504 kts | 346° |
| 2026-04-25 19:47 | -3.40841 | 17.45852 | 33921 ft | 505 kts | 346° |
| 2026-04-25 19:48 | -3.34080 | 17.43959 | 33915 ft | 505 kts | 346° |
| 2026-04-25 19:48 | -3.27311 | 17.42067 | 33919 ft | 505 kts | 346° |
| 2026-04-25 19:49 | -3.21687 | 17.40495 | 33915 ft | 505 kts | 346° |
| 2026-04-25 19:49 | -3.13821 | 17.38296 | 33915 ft | 505 kts | 346° |
| 2026-04-25 19:50 | -3.03683 | 17.35463 | 33915 ft | 504 kts | 346° |
| 2026-04-25 19:51 | -2.96974 | 17.33585 | 33917 ft | 504 kts | 346° |
| 2026-04-25 19:51 | -2.90220 | 17.31696 | 33917 ft | 504 kts | 346° |
| 2026-04-25 19:52 | -2.83457 | 17.29807 | 33917 ft | 505 kts | 346° |
| 2026-04-25 19:52 | -2.76691 | 17.27916 | 33918 ft | 505 kts | 346° |
| 2026-04-25 19:53 | -2.69919 | 17.26023 | 33907 ft | 506 kts | 346° |
| 2026-04-25 19:53 | -2.63186 | 17.24141 | 33905 ft | 506 kts | 346° |
| 2026-04-25 19:54 | -2.56413 | 17.22250 | 33904 ft | 505 kts | 346° |
| 2026-04-25 19:54 | -2.49634 | 17.20355 | 33907 ft | 506 kts | 346° |
| 2026-04-25 19:55 | -2.42906 | 17.18474 | 33906 ft | 505 kts | 346° |
| 2026-04-25 19:55 | -2.36135 | 17.16582 | 33908 ft | 505 kts | 346° |
| 2026-04-25 19:56 | -2.29355 | 17.14692 | 33909 ft | 506 kts | 346° |
| 2026-04-25 19:56 | -2.22577 | 17.12797 | 33908 ft | 506 kts | 346° |
| 2026-04-25 19:57 | -2.15799 | 17.10905 | 33896 ft | 506 kts | 346° |
| 2026-04-25 19:57 | -2.09022 | 17.09012 | 33896 ft | 505 kts | 346° |
| 2026-04-25 19:58 | -2.02299 | 17.07134 | 33899 ft | 505 kts | 346° |
| 2026-04-25 19:58 | -1.95529 | 17.05245 | 33899 ft | 505 kts | 347° |
| 2026-04-25 19:59 | -1.88753 | 17.03352 | 33897 ft | 506 kts | 347° |
| 2026-04-25 19:59 | -1.81971 | 17.01475 | 33896 ft | 506 kts | 347° |
| 2026-04-25 20:00 | -1.75181 | 16.99600 | 33896 ft | 507 kts | 347° |
| 2026-04-25 20:00 | -1.68429 | 16.97730 | 33898 ft | 507 kts | 347° |
| 2026-04-25 20:01 | -1.58230 | 16.94911 | 33895 ft | 507 kts | 347° |
| 2026-04-25 20:01 | -1.51429 | 16.93027 | 33898 ft | 507 kts | 347° |
| 2026-04-25 20:02 | -1.44629 | 16.91146 | 33900 ft | 507 kts | 347° |
| 2026-04-25 20:02 | -1.37859 | 16.89272 | 34255 ft | 508 kts | 347° |
| 2026-04-25 20:03 | -1.34456 | 16.88329 | 34621 ft | 506 kts | 347° |
| 2026-04-25 20:03 | -1.31073 | 16.87393 | 34996 ft | 503 kts | 347° |
| 2026-04-25 20:03 | -1.27707 | 16.86462 | 35336 ft | 501 kts | 347° |
| 2026-04-25 20:03 | -1.24354 | 16.85535 | 35643 ft | 500 kts | 347° |
| 2026-04-25 20:04 | -1.21001 | 16.84604 | 35809 ft | 501 kts | 347° |
| 2026-04-25 20:04 | -1.17636 | 16.83670 | 35845 ft | 502 kts | 347° |
| 2026-04-25 20:04 | -1.10903 | 16.81791 | 35884 ft | 502 kts | 347° |
| 2026-04-25 20:05 | -1.04238 | 16.79927 | 35884 ft | 499 kts | 347° |
| 2026-04-25 20:05 | -0.97564 | 16.78059 | 35886 ft | 498 kts | 347° |
| 2026-04-25 20:06 | -0.90897 | 16.76199 | 35891 ft | 497 kts | 347° |
| 2026-04-25 20:06 | -0.84233 | 16.74338 | 35890 ft | 497 kts | 347° |
| 2026-04-25 20:07 | -0.77610 | 16.72489 | 35891 ft | 498 kts | 347° |
| 2026-04-25 20:07 | -0.70931 | 16.70623 | 35893 ft | 499 kts | 347° |
| 2026-04-25 20:08 | -0.64237 | 16.68753 | 35888 ft | 500 kts | 347° |
| 2026-04-25 20:08 | -0.57543 | 16.66883 | 35892 ft | 500 kts | 347° |
| 2026-04-25 20:09 | -0.50879 | 16.65018 | 35888 ft | 501 kts | 347° |
| 2026-04-25 20:09 | -0.44171 | 16.63132 | 35889 ft | 501 kts | 347° |
| 2026-04-25 20:10 | -0.37460 | 16.61241 | 35885 ft | 501 kts | 347° |
| 2026-04-25 20:10 | -0.30757 | 16.59353 | 35890 ft | 500 kts | 346° |
| 2026-04-25 20:11 | -0.24054 | 16.57465 | 35890 ft | 501 kts | 346° |
| 2026-04-25 20:11 | -0.17394 | 16.55590 | 35896 ft | 500 kts | 346° |
| 2026-04-25 20:12 | -0.10697 | 16.53707 | 35898 ft | 500 kts | 346° |
| 2026-04-25 20:12 | -0.06219 | 16.52448 | 35897 ft | 499 kts | 346° |
| 2026-04-25 20:13 | 0.02685 | 16.49943 | 35899 ft | 499 kts | 346° |
| 2026-04-25 20:13 | 0.09328 | 16.48073 | 35897 ft | 499 kts | 346° |
| 2026-04-25 20:14 | 0.16016 | 16.46191 | 35899 ft | 499 kts | 346° |
| 2026-04-25 20:14 | 0.22707 | 16.44308 | 35898 ft | 500 kts | 346° |
| 2026-04-25 20:15 | 0.29404 | 16.42424 | 35898 ft | 500 kts | 346° |
| 2026-04-25 20:15 | 0.36055 | 16.40553 | 35900 ft | 500 kts | 346° |
| 2026-04-25 20:16 | 0.42759 | 16.38666 | 35909 ft | 500 kts | 346° |
| 2026-04-25 20:16 | 0.49461 | 16.36779 | 35908 ft | 500 kts | 346° |
| 2026-04-25 20:17 | 0.56163 | 16.34893 | 35906 ft | 501 kts | 346° |
| 2026-04-25 20:17 | 0.62823 | 16.33013 | 35907 ft | 501 kts | 346° |
| 2026-04-25 20:18 | 0.69526 | 16.31108 | 35909 ft | 500 kts | 346° |
| 2026-04-25 20:18 | 0.76224 | 16.29205 | 35903 ft | 500 kts | 346° |
| 2026-04-25 20:19 | 0.82924 | 16.27305 | 35915 ft | 500 kts | 346° |
| 2026-04-25 20:19 | 0.89580 | 16.25416 | 35918 ft | 501 kts | 346° |
| 2026-04-25 20:20 | 0.96290 | 16.23516 | 35919 ft | 501 kts | 346° |
| 2026-04-25 20:20 | 1.03003 | 16.21626 | 35931 ft | 501 kts | 346° |
| 2026-04-25 20:21 | 1.09720 | 16.19736 | 35924 ft | 502 kts | 346° |
| 2026-04-25 20:21 | 1.16401 | 16.17856 | 35930 ft | 502 kts | 346° |
| 2026-04-25 20:22 | 1.20904 | 16.16587 | 35935 ft | 503 kts | 346° |
| 2026-04-25 20:22 | 1.29879 | 16.14057 | 35937 ft | 504 kts | 346° |
| 2026-04-25 20:23 | 1.36628 | 16.12155 | 35937 ft | 504 kts | 346° |
| 2026-04-25 20:23 | 1.43333 | 16.10262 | 35934 ft | 504 kts | 346° |
| 2026-04-25 20:24 | 1.50087 | 16.08357 | 35941 ft | 505 kts | 346° |
| 2026-04-25 20:24 | 1.56848 | 16.06452 | 35945 ft | 505 kts | 346° |
| 2026-04-25 20:25 | 1.63614 | 16.04545 | 35944 ft | 505 kts | 346° |
| 2026-04-25 20:25 | 1.70385 | 16.02637 | 35945 ft | 506 kts | 346° |
| 2026-04-25 20:26 | 1.77113 | 16.00740 | 35947 ft | 506 kts | 346° |
| 2026-04-25 20:26 | 1.83887 | 15.98827 | 35955 ft | 506 kts | 346° |
| 2026-04-25 20:27 | 1.90664 | 15.96918 | 35953 ft | 506 kts | 346° |
| 2026-04-25 20:27 | 1.97440 | 15.95003 | 35955 ft | 506 kts | 346° |
| 2026-04-25 20:28 | 2.04169 | 15.93106 | 35952 ft | 506 kts | 346° |
| 2026-04-25 20:28 | 2.10942 | 15.91193 | 35959 ft | 506 kts | 346° |
| 2026-04-25 20:29 | 2.17718 | 15.89282 | 35954 ft | 506 kts | 346° |
| 2026-04-25 20:29 | 2.24450 | 15.87382 | 35953 ft | 506 kts | 346° |
| 2026-04-25 20:30 | 2.31227 | 15.85471 | 35953 ft | 506 kts | 346° |
| 2026-04-25 20:30 | 2.37999 | 15.83559 | 35955 ft | 506 kts | 346° |
| 2026-04-25 20:31 | 2.44770 | 15.81646 | 35956 ft | 506 kts | 346° |
| 2026-04-25 20:31 | 2.51499 | 15.79748 | 35962 ft | 505 kts | 346° |
| 2026-04-25 20:32 | 2.58264 | 15.77839 | 35963 ft | 505 kts | 346° |
| 2026-04-25 20:32 | 2.65036 | 15.75926 | 35963 ft | 505 kts | 346° |
| 2026-04-25 20:33 | 2.71795 | 15.74017 | 35965 ft | 505 kts | 346° |
| 2026-04-25 20:33 | 2.77418 | 15.72428 | 35964 ft | 505 kts | 345° |
| 2026-04-25 20:34 | 2.85274 | 15.70216 | 35961 ft | 505 kts | 346° |
| 2026-04-25 20:34 | 2.92043 | 15.68326 | 35965 ft | 505 kts | 346° |
| 2026-04-25 20:35 | 2.98813 | 15.66436 | 35974 ft | 505 kts | 345° |
| 2026-04-25 20:35 | 3.05581 | 15.64538 | 35968 ft | 505 kts | 345° |
| 2026-04-25 20:36 | 3.12303 | 15.62659 | 35973 ft | 505 kts | 345° |
| 2026-04-25 20:36 | 3.19075 | 15.60764 | 35972 ft | 505 kts | 345° |
| 2026-04-25 20:37 | 3.25852 | 15.58869 | 35974 ft | 506 kts | 345° |
| 2026-04-25 20:37 | 3.32625 | 15.56972 | 35972 ft | 506 kts | 345° |
| 2026-04-25 20:38 | 3.39361 | 15.55085 | 35975 ft | 506 kts | 345° |
| 2026-04-25 20:38 | 3.46141 | 15.53186 | 35973 ft | 506 kts | 345° |
| 2026-04-25 20:39 | 3.52932 | 15.51282 | 35971 ft | 506 kts | 345° |
| 2026-04-25 20:39 | 3.57420 | 15.50025 | 35983 ft | 506 kts | 345° |
| 2026-04-25 20:40 | 3.66454 | 15.47494 | 35985 ft | 507 kts | 345° |
| 2026-04-25 20:40 | 3.73244 | 15.45590 | 35982 ft | 507 kts | 345° |
| 2026-04-25 20:41 | 3.80038 | 15.43686 | 35982 ft | 507 kts | 345° |
| 2026-04-25 20:41 | 3.86831 | 15.41780 | 35982 ft | 507 kts | 345° |
| 2026-04-25 20:42 | 3.93574 | 15.39890 | 35995 ft | 507 kts | 345° |
| 2026-04-25 20:42 | 4.00360 | 15.37984 | 36004 ft | 507 kts | 345° |
| 2026-04-25 20:43 | 4.07154 | 15.36087 | 36000 ft | 507 kts | 345° |
| 2026-04-25 20:43 | 4.13950 | 15.34227 | 36000 ft | 506 kts | 345° |
| 2026-04-25 20:44 | 4.20747 | 15.32356 | 35997 ft | 507 kts | 345° |
| 2026-04-25 20:44 | 4.27479 | 15.30453 | 36001 ft | 506 kts | 345° |
| 2026-04-25 20:45 | 4.34249 | 15.28528 | 35998 ft | 506 kts | 345° |
| 2026-04-25 20:45 | 4.41020 | 15.26612 | 36001 ft | 505 kts | 345° |
| 2026-04-25 20:46 | 4.47780 | 15.24698 | 36003 ft | 505 kts | 345° |
| 2026-04-25 20:46 | 4.54493 | 15.22797 | 36008 ft | 504 kts | 345° |
| 2026-04-25 20:47 | 4.61247 | 15.20887 | 36014 ft | 505 kts | 345° |
| 2026-04-25 20:47 | 4.68005 | 15.18974 | 36010 ft | 504 kts | 345° |
| 2026-04-25 20:48 | 4.74762 | 15.17064 | 36012 ft | 504 kts | 345° |
| 2026-04-25 20:48 | 4.81514 | 15.15150 | 36009 ft | 504 kts | 345° |
| 2026-04-25 20:49 | 4.88219 | 15.13251 | 36008 ft | 504 kts | 345° |
| 2026-04-25 20:49 | 4.94968 | 15.11340 | 36008 ft | 504 kts | 345° |
| 2026-04-25 20:50 | 5.01711 | 15.09433 | 36008 ft | 503 kts | 345° |
| 2026-04-25 20:50 | 5.08453 | 15.07520 | 36009 ft | 503 kts | 345° |
| 2026-04-25 20:51 | 5.15147 | 15.05621 | 36007 ft | 503 kts | 345° |
| 2026-04-25 20:51 | 5.21885 | 15.03711 | 36007 ft | 503 kts | 345° |
| 2026-04-25 20:52 | 5.27488 | 15.02121 | 36007 ft | 504 kts | 345° |
| 2026-04-25 20:52 | 5.35372 | 14.99885 | 36008 ft | 504 kts | 345° |
| 2026-04-25 20:53 | 5.42073 | 14.97983 | 36010 ft | 504 kts | 345° |
| 2026-04-25 20:53 | 5.48820 | 14.96069 | 36008 ft | 504 kts | 345° |
| 2026-04-25 20:54 | 5.55571 | 14.94149 | 36009 ft | 504 kts | 345° |
| 2026-04-25 20:54 | 5.62325 | 14.92230 | 36011 ft | 504 kts | 345° |
| 2026-04-25 20:55 | 5.69076 | 14.90313 | 36010 ft | 504 kts | 345° |
| 2026-04-25 20:55 | 5.75784 | 14.88407 | 36007 ft | 504 kts | 345° |
| 2026-04-25 20:56 | 5.82537 | 14.86486 | 36009 ft | 504 kts | 345° |
| 2026-04-25 20:56 | 5.89287 | 14.84570 | 36013 ft | 504 kts | 345° |
| 2026-04-25 20:57 | 5.96039 | 14.82648 | 36012 ft | 504 kts | 345° |
| 2026-04-25 20:57 | 6.02736 | 14.80742 | 36012 ft | 504 kts | 345° |
| 2026-04-25 20:58 | 6.09479 | 14.78824 | 36008 ft | 504 kts | 345° |
| 2026-04-25 20:58 | 6.16229 | 14.76903 | 36011 ft | 504 kts | 345° |
| 2026-04-25 20:59 | 6.22979 | 14.74980 | 36010 ft | 504 kts | 345° |
| 2026-04-25 20:59 | 6.29688 | 14.73071 | 36009 ft | 505 kts | 345° |
| 2026-04-25 21:00 | 6.34205 | 14.71785 | 36007 ft | 504 kts | 345° |
| 2026-04-25 21:01 | 6.46559 | 14.68263 | 36009 ft | 504 kts | 345° |
| 2026-04-25 21:01 | 6.53301 | 14.66343 | 36016 ft | 503 kts | 344° |
| 2026-04-25 21:02 | 6.59991 | 14.64437 | 36020 ft | 503 kts | 344° |
| 2026-04-25 21:02 | 6.66729 | 14.62522 | 36019 ft | 503 kts | 344° |
| 2026-04-25 21:03 | 6.73474 | 14.60606 | 36019 ft | 503 kts | 344° |
| 2026-04-25 21:03 | 6.80219 | 14.58686 | 36018 ft | 504 kts | 344° |
| 2026-04-25 21:04 | 6.86920 | 14.56778 | 36017 ft | 504 kts | 344° |
| 2026-04-25 21:04 | 6.93660 | 14.54859 | 36020 ft | 503 kts | 344° |
| 2026-04-25 21:05 | 7.00398 | 14.52940 | 36018 ft | 503 kts | 344° |
| 2026-04-25 21:05 | 7.07133 | 14.51023 | 36017 ft | 503 kts | 344° |
| 2026-04-25 21:06 | 7.13863 | 14.49104 | 36017 ft | 503 kts | 344° |
| 2026-04-25 21:06 | 7.20547 | 14.47198 | 36021 ft | 503 kts | 343° |
| 2026-04-25 21:07 | 7.27272 | 14.45281 | 36020 ft | 502 kts | 343° |
| 2026-04-25 21:07 | 7.33995 | 14.43356 | 36018 ft | 502 kts | 343° |
| 2026-04-25 21:08 | 7.40711 | 14.41429 | 36009 ft | 502 kts | 343° |
| 2026-04-25 21:08 | 7.47386 | 14.39513 | 36001 ft | 502 kts | 343° |
| 2026-04-25 21:09 | 7.57467 | 14.36623 | 35998 ft | 502 kts | 343° |
| 2026-04-25 21:09 | 7.64179 | 14.34694 | 36001 ft | 501 kts | 343° |
| 2026-04-25 21:10 | 7.70890 | 14.32769 | 36003 ft | 501 kts | 343° |
| 2026-04-25 21:10 | 7.77554 | 14.30855 | 35981 ft | 502 kts | 343° |
| 2026-04-25 21:11 | 7.84284 | 14.28920 | 35903 ft | 504 kts | 343° |
| 2026-04-25 21:11 | 7.91031 | 14.26982 | 35904 ft | 504 kts | 343° |
| 2026-04-25 21:12 | 7.97782 | 14.25038 | 35898 ft | 505 kts | 343° |
| 2026-04-25 21:12 | 8.02256 | 14.23753 | 35899 ft | 505 kts | 343° |
| 2026-04-25 21:13 | 8.11254 | 14.21184 | 35897 ft | 505 kts | 343° |
| 2026-04-25 21:13 | 8.18008 | 14.19251 | 35898 ft | 504 kts | 343° |
| 2026-04-25 21:14 | 8.24764 | 14.17318 | 35896 ft | 504 kts | 343° |
| 2026-04-25 21:14 | 8.31517 | 14.15387 | 35896 ft | 505 kts | 343° |
| 2026-04-25 21:15 | 8.38229 | 14.13463 | 35888 ft | 505 kts | 343° |
| 2026-04-25 21:15 | 8.44991 | 14.11525 | 35889 ft | 505 kts | 343° |
| 2026-04-25 21:16 | 8.51755 | 14.09589 | 35886 ft | 505 kts | 343° |
| 2026-04-25 21:16 | 8.58514 | 14.07649 | 35891 ft | 505 kts | 343° |
| 2026-04-25 21:17 | 8.65227 | 14.05723 | 35888 ft | 504 kts | 343° |
| 2026-04-25 21:17 | 8.71975 | 14.03784 | 35889 ft | 504 kts | 343° |
| 2026-04-25 21:18 | 8.78718 | 14.01843 | 35890 ft | 504 kts | 343° |
| 2026-04-25 21:18 | 8.85465 | 13.99895 | 35890 ft | 504 kts | 343° |
| 2026-04-25 21:19 | 8.92216 | 13.97948 | 35889 ft | 505 kts | 343° |
| 2026-04-25 21:19 | 8.98927 | 13.96011 | 35889 ft | 505 kts | 343° |
| 2026-04-25 21:20 | 9.03448 | 13.94703 | 35889 ft | 505 kts | 343° |
| 2026-04-25 21:20 | 9.12455 | 13.92105 | 35890 ft | 506 kts | 343° |
| 2026-04-25 21:21 | 9.19232 | 13.90148 | 35888 ft | 507 kts | 343° |
| 2026-04-25 21:21 | 9.25967 | 13.88200 | 35891 ft | 507 kts | 342° |
| 2026-04-25 21:22 | 9.32755 | 13.86238 | 35888 ft | 508 kts | 342° |
| 2026-04-25 21:22 | 9.39543 | 13.84261 | 35883 ft | 508 kts | 342° |
| 2026-04-25 21:23 | 9.46324 | 13.82259 | 35881 ft | 507 kts | 342° |
| 2026-04-25 21:23 | 9.53058 | 13.80283 | 35867 ft | 507 kts | 342° |
| 2026-04-25 21:24 | 9.59847 | 13.78322 | 35883 ft | 507 kts | 342° |
| 2026-04-25 21:24 | 9.66633 | 13.76368 | 35880 ft | 507 kts | 342° |
| 2026-04-25 21:25 | 9.73422 | 13.74409 | 35864 ft | 507 kts | 342° |
| 2026-04-25 21:25 | 9.80168 | 13.72457 | 35882 ft | 507 kts | 342° |
| 2026-04-25 21:26 | 9.86954 | 13.70492 | 35872 ft | 507 kts | 342° |
| 2026-04-25 21:26 | 9.93741 | 13.68524 | 35865 ft | 507 kts | 342° |
| 2026-04-25 21:27 | 10.00524 | 13.66562 | 35883 ft | 507 kts | 342° |
| 2026-04-25 21:27 | 10.07311 | 13.64596 | 35872 ft | 507 kts | 342° |
| 2026-04-25 21:28 | 10.14051 | 13.62652 | 35882 ft | 507 kts | 342° |
| 2026-04-25 21:28 | 10.20842 | 13.60697 | 35879 ft | 507 kts | 342° |
| 2026-04-25 21:29 | 10.26487 | 13.59068 | 35884 ft | 507 kts | 342° |
| 2026-04-25 21:29 | 10.33280 | 13.57108 | 35875 ft | 507 kts | 342° |
| 2026-04-25 21:30 | 10.41167 | 13.54830 | 35874 ft | 507 kts | 342° |
| 2026-04-25 21:30 | 10.45708 | 13.53517 | 35863 ft | 507 kts | 342° |
| 2026-04-25 21:31 | 10.53597 | 13.51240 | 35878 ft | 507 kts | 342° |
| 2026-04-25 21:31 | 10.60385 | 13.49277 | 35865 ft | 507 kts | 342° |
| 2026-04-25 21:32 | 10.67138 | 13.47231 | 35863 ft | 506 kts | 341° |
| 2026-04-25 21:32 | 10.73860 | 13.45119 | 35874 ft | 506 kts | 341° |
| 2026-04-25 21:33 | 10.80539 | 13.43025 | 35868 ft | 506 kts | 341° |
| 2026-04-25 21:33 | 10.87263 | 13.40934 | 35859 ft | 505 kts | 341° |
| 2026-04-25 21:34 | 10.93987 | 13.38843 | 35865 ft | 505 kts | 341° |
| 2026-04-25 21:34 | 11.00709 | 13.36755 | 35869 ft | 505 kts | 341° |
| 2026-04-25 21:35 | 11.07389 | 13.34677 | 35865 ft | 505 kts | 341° |
| 2026-04-25 21:35 | 11.14113 | 13.32584 | 35865 ft | 505 kts | 341° |
| 2026-04-25 21:36 | 11.20836 | 13.30491 | 35868 ft | 505 kts | 341° |
| 2026-04-25 21:36 | 11.27557 | 13.28397 | 35879 ft | 505 kts | 341° |
| 2026-04-25 21:37 | 11.33143 | 13.26657 | 35860 ft | 505 kts | 341° |
| 2026-04-25 21:37 | 11.40961 | 13.24216 | 35866 ft | 505 kts | 341° |
| 2026-04-25 21:38 | 11.47686 | 13.22118 | 35869 ft | 505 kts | 341° |
| 2026-04-25 21:38 | 11.54409 | 13.20022 | 35878 ft | 505 kts | 341° |
| 2026-04-25 21:39 | 11.61130 | 13.17924 | 35864 ft | 505 kts | 341° |
| 2026-04-25 21:39 | 11.67850 | 13.15823 | 35875 ft | 505 kts | 341° |
| 2026-04-25 21:40 | 11.74512 | 13.13739 | 35878 ft | 504 kts | 341° |
| 2026-04-25 21:40 | 11.81222 | 13.11641 | 35877 ft | 504 kts | 341° |
| 2026-04-25 21:41 | 11.87928 | 13.09544 | 35874 ft | 504 kts | 341° |
| 2026-04-25 21:41 | 11.94701 | 13.07661 | 35875 ft | 505 kts | 343° |
| 2026-04-25 21:42 | 12.01460 | 13.05911 | 35873 ft | 504 kts | 343° |
| 2026-04-25 21:42 | 12.08250 | 13.04109 | 35881 ft | 504 kts | 343° |
| 2026-04-25 21:43 | 12.15027 | 13.02278 | 35867 ft | 503 kts | 342° |
| 2026-04-25 21:43 | 12.21748 | 13.00461 | 35856 ft | 502 kts | 342° |
| 2026-04-25 21:44 | 12.28504 | 12.98636 | 35853 ft | 502 kts | 343° |
| 2026-04-25 21:45 | 12.38618 | 12.95907 | 35858 ft | 501 kts | 342° |
| 2026-04-25 21:45 | 12.45352 | 12.94087 | 35857 ft | 500 kts | 342° |
| 2026-04-25 21:46 | 12.52082 | 12.92269 | 35865 ft | 500 kts | 342° |
| 2026-04-25 21:46 | 12.58762 | 12.90464 | 35858 ft | 500 kts | 342° |
| 2026-04-25 21:47 | 12.65494 | 12.88642 | 35868 ft | 500 kts | 342° |
| 2026-04-25 21:47 | 12.72226 | 12.86820 | 35869 ft | 500 kts | 342° |
| 2026-04-25 21:48 | 12.78961 | 12.84997 | 35868 ft | 501 kts | 342° |
| 2026-04-25 21:48 | 12.85644 | 12.83188 | 35868 ft | 500 kts | 342° |
| 2026-04-25 21:49 | 12.92375 | 12.81357 | 35854 ft | 501 kts | 342° |
| 2026-04-25 21:49 | 12.99115 | 12.79529 | 35854 ft | 501 kts | 342° |
| 2026-04-25 21:50 | 13.05853 | 12.77701 | 35854 ft | 501 kts | 342° |
| 2026-04-25 21:50 | 13.12542 | 12.75886 | 35848 ft | 500 kts | 342° |
| 2026-04-25 21:51 | 13.19274 | 12.74056 | 35858 ft | 500 kts | 342° |
| 2026-04-25 21:51 | 13.26001 | 12.72226 | 35855 ft | 500 kts | 342° |
| 2026-04-25 21:52 | 13.32717 | 12.70374 | 35856 ft | 499 kts | 341° |
| 2026-04-25 21:52 | 13.39361 | 12.68479 | 35855 ft | 499 kts | 341° |
| 2026-04-25 21:53 | 13.46038 | 12.66568 | 35856 ft | 498 kts | 341° |
| 2026-04-25 21:53 | 13.52720 | 12.64666 | 35853 ft | 498 kts | 341° |
| 2026-04-25 21:54 | 13.59398 | 12.62765 | 35847 ft | 498 kts | 341° |
| 2026-04-25 21:54 | 13.66073 | 12.60865 | 35836 ft | 498 kts | 341° |
| 2026-04-25 21:55 | 13.72744 | 12.58964 | 35832 ft | 497 kts | 341° |
| 2026-04-25 21:55 | 13.79366 | 12.57078 | 35834 ft | 497 kts | 341° |
| 2026-04-25 21:56 | 13.86032 | 12.55179 | 35834 ft | 497 kts | 341° |
| 2026-04-25 21:56 | 13.92690 | 12.53277 | 35834 ft | 496 kts | 341° |
| 2026-04-25 21:57 | 13.99345 | 12.51378 | 35831 ft | 496 kts | 341° |
| 2026-04-25 21:57 | 14.05951 | 12.49489 | 35835 ft | 496 kts | 341° |
| 2026-04-25 21:58 | 14.12601 | 12.47590 | 35833 ft | 496 kts | 341° |
| 2026-04-25 21:58 | 14.19249 | 12.45686 | 35833 ft | 496 kts | 341° |
| 2026-04-25 21:59 | 14.25888 | 12.43776 | 35833 ft | 495 kts | 341° |
| 2026-04-25 21:59 | 14.32526 | 12.41855 | 35833 ft | 495 kts | 341° |
| 2026-04-25 22:00 | 14.42422 | 12.38991 | 35835 ft | 495 kts | 341° |
| 2026-04-25 22:00 | 14.49054 | 12.37072 | 35834 ft | 495 kts | 341° |
| 2026-04-25 22:01 | 14.55687 | 12.35150 | 35827 ft | 495 kts | 341° |
| 2026-04-25 22:01 | 14.61202 | 12.33551 | 35823 ft | 495 kts | 341° |
| 2026-04-25 22:02 | 14.68914 | 12.31316 | 35823 ft | 495 kts | 341° |
| 2026-04-25 22:02 | 14.75553 | 12.29388 | 35823 ft | 496 kts | 341° |
| 2026-04-25 22:03 | 14.82192 | 12.27461 | 35826 ft | 496 kts | 341° |
| 2026-04-25 22:03 | 14.88839 | 12.25529 | 35826 ft | 496 kts | 340° |
| 2026-04-25 22:04 | 14.95491 | 12.23595 | 35824 ft | 496 kts | 340° |
| 2026-04-25 22:04 | 15.02090 | 12.21676 | 35822 ft | 496 kts | 340° |
| 2026-04-25 22:05 | 15.08729 | 12.19744 | 35825 ft | 495 kts | 340° |
| 2026-04-25 22:05 | 15.15369 | 12.17810 | 35824 ft | 495 kts | 340° |
| 2026-04-25 22:06 | 15.21999 | 12.15878 | 35823 ft | 495 kts | 340° |
| 2026-04-25 22:06 | 15.28577 | 12.13958 | 35824 ft | 494 kts | 340° |
| 2026-04-25 22:07 | 15.34123 | 12.12332 | 35825 ft | 494 kts | 340° |
| 2026-04-25 22:07 | 15.41813 | 12.10078 | 35823 ft | 494 kts | 340° |
| 2026-04-25 22:08 | 15.48434 | 12.08135 | 35826 ft | 494 kts | 340° |
| 2026-04-25 22:08 | 15.55049 | 12.06194 | 35823 ft | 494 kts | 340° |
| 2026-04-25 22:09 | 15.61615 | 12.04266 | 35827 ft | 494 kts | 340° |
| 2026-04-25 22:09 | 15.68226 | 12.02323 | 35823 ft | 494 kts | 340° |
| 2026-04-25 22:10 | 15.74834 | 12.00378 | 35824 ft | 493 kts | 340° |
| 2026-04-25 22:10 | 15.81441 | 11.98433 | 35829 ft | 493 kts | 340° |
| 2026-04-25 22:11 | 15.88003 | 11.96502 | 35821 ft | 494 kts | 340° |
| 2026-04-25 22:11 | 15.94608 | 11.94554 | 35826 ft | 493 kts | 340° |
| 2026-04-25 22:12 | 16.01207 | 11.92607 | 35823 ft | 493 kts | 340° |
| 2026-04-25 22:12 | 16.06692 | 11.90988 | 35824 ft | 493 kts | 340° |
| 2026-04-25 22:13 | 16.14406 | 11.88709 | 35825 ft | 493 kts | 340° |
| 2026-04-25 22:13 | 16.20959 | 11.86772 | 35820 ft | 493 kts | 340° |
| 2026-04-25 22:14 | 16.27555 | 11.84820 | 35824 ft | 493 kts | 339° |
| 2026-04-25 22:14 | 16.34153 | 11.82867 | 35825 ft | 493 kts | 339° |
| 2026-04-25 22:15 | 16.40749 | 11.80914 | 35823 ft | 493 kts | 339° |
| 2026-04-25 22:16 | 16.50603 | 11.77992 | 35825 ft | 493 kts | 339° |
| 2026-04-25 22:16 | 16.57197 | 11.76037 | 35824 ft | 493 kts | 339° |
| 2026-04-25 22:17 | 16.63790 | 11.74078 | 35825 ft | 492 kts | 339° |
| 2026-04-25 22:17 | 16.70379 | 11.72117 | 35822 ft | 492 kts | 339° |
| 2026-04-25 22:18 | 16.76915 | 11.70175 | 35825 ft | 492 kts | 339° |
| 2026-04-25 22:18 | 16.83491 | 11.68217 | 35825 ft | 491 kts | 339° |
| 2026-04-25 22:19 | 16.90068 | 11.66257 | 35821 ft | 491 kts | 339° |
| 2026-04-25 22:19 | 16.96632 | 11.64301 | 35824 ft | 490 kts | 339° |
| 2026-04-25 22:20 | 17.03146 | 11.62353 | 35825 ft | 490 kts | 339° |
| 2026-04-25 22:20 | 17.09692 | 11.60397 | 35847 ft | 489 kts | 339° |
| 2026-04-25 22:21 | 17.16224 | 11.58444 | 35863 ft | 488 kts | 338° |
| 2026-04-25 22:21 | 17.22758 | 11.56489 | 35862 ft | 488 kts | 338° |
| 2026-04-25 22:22 | 17.29285 | 11.54534 | 35864 ft | 488 kts | 338° |
| 2026-04-25 22:22 | 17.35764 | 11.52591 | 35866 ft | 487 kts | 338° |
| 2026-04-25 22:23 | 17.42288 | 11.50634 | 35861 ft | 487 kts | 338° |
| 2026-04-25 22:23 | 17.48568 | 11.48131 | 35869 ft | 480 kts | 330° |
| 2026-04-25 22:24 | 17.54628 | 11.45201 | 35870 ft | 480 kts | 329° |
| 2026-04-25 22:24 | 17.60651 | 11.42286 | 35860 ft | 480 kts | 329° |
| 2026-04-25 22:25 | 17.66729 | 11.39376 | 35861 ft | 480 kts | 330° |
| 2026-04-25 22:25 | 17.72819 | 11.36473 | 35879 ft | 481 kts | 330° |
| 2026-04-25 22:26 | 17.78911 | 11.33569 | 35863 ft | 481 kts | 330° |
| 2026-04-25 22:26 | 17.85004 | 11.30662 | 35863 ft | 481 kts | 330° |
| 2026-04-25 22:27 | 17.91050 | 11.27774 | 35880 ft | 481 kts | 329° |
| 2026-04-25 22:27 | 17.97137 | 11.24865 | 35859 ft | 481 kts | 329° |
| 2026-04-25 22:28 | 18.03221 | 11.21955 | 35872 ft | 480 kts | 329° |
| 2026-04-25 22:28 | 18.09300 | 11.19045 | 35862 ft | 480 kts | 329° |
| 2026-04-25 22:29 | 18.15367 | 11.16136 | 35860 ft | 479 kts | 329° |
| 2026-04-25 22:29 | 18.21387 | 11.13247 | 35881 ft | 479 kts | 329° |
| 2026-04-25 22:30 | 18.30468 | 11.08888 | 35884 ft | 478 kts | 329° |
| 2026-04-25 22:30 | 18.35494 | 11.06475 | 35883 ft | 477 kts | 329° |
| 2026-04-25 22:31 | 18.42517 | 11.03096 | 35884 ft | 477 kts | 329° |
| 2026-04-25 22:31 | 18.48553 | 11.00191 | 35866 ft | 477 kts | 329° |
| 2026-04-25 22:32 | 18.54590 | 10.97283 | 35884 ft | 477 kts | 329° |
| 2026-04-25 22:32 | 18.60623 | 10.94371 | 35883 ft | 476 kts | 329° |
| 2026-04-25 22:33 | 18.66611 | 10.91477 | 35881 ft | 477 kts | 328° |
| 2026-04-25 22:33 | 18.72642 | 10.88561 | 35880 ft | 477 kts | 328° |
| 2026-04-25 22:34 | 18.78675 | 10.85640 | 35883 ft | 477 kts | 328° |
| 2026-04-25 22:34 | 18.84709 | 10.82720 | 35891 ft | 477 kts | 328° |
| 2026-04-25 22:35 | 18.90701 | 10.79816 | 35889 ft | 477 kts | 328° |
| 2026-04-25 22:35 | 18.96744 | 10.76885 | 35888 ft | 478 kts | 328° |
| 2026-04-25 22:36 | 19.02784 | 10.73951 | 35888 ft | 478 kts | 328° |
| 2026-04-25 22:36 | 19.08821 | 10.71021 | 35888 ft | 477 kts | 328° |
| 2026-04-25 22:37 | 19.14853 | 10.68089 | 35899 ft | 477 kts | 328° |
| 2026-04-25 22:37 | 19.20845 | 10.65172 | 35898 ft | 477 kts | 328° |
| 2026-04-25 22:38 | 19.26877 | 10.62234 | 35898 ft | 477 kts | 328° |
| 2026-04-25 22:38 | 19.32905 | 10.59295 | 35898 ft | 477 kts | 328° |
| 2026-04-25 22:39 | 19.38929 | 10.56358 | 35904 ft | 477 kts | 328° |
| 2026-04-25 22:39 | 19.44951 | 10.53418 | 35909 ft | 476 kts | 328° |
| 2026-04-25 22:40 | 19.50932 | 10.50496 | 35908 ft | 477 kts | 328° |
| 2026-04-25 22:40 | 19.56948 | 10.47556 | 35907 ft | 476 kts | 328° |
| 2026-04-25 22:41 | 19.62958 | 10.44615 | 35913 ft | 475 kts | 328° |
| 2026-04-25 22:41 | 19.68958 | 10.41675 | 35917 ft | 475 kts | 327° |
| 2026-04-25 22:42 | 19.74953 | 10.38735 | 35916 ft | 474 kts | 327° |
| 2026-04-25 22:42 | 19.80903 | 10.35818 | 35919 ft | 474 kts | 327° |
| 2026-04-25 22:43 | 19.86890 | 10.32878 | 35927 ft | 474 kts | 327° |
| 2026-04-25 22:43 | 19.92878 | 10.29933 | 35927 ft | 474 kts | 327° |
| 2026-04-25 22:44 | 19.98865 | 10.26990 | 35930 ft | 474 kts | 327° |
| 2026-04-25 22:44 | 20.04811 | 10.24063 | 35938 ft | 474 kts | 327° |
| 2026-04-25 22:45 | 20.10795 | 10.21118 | 35933 ft | 474 kts | 327° |
| 2026-04-25 22:45 | 20.16776 | 10.18166 | 35934 ft | 474 kts | 327° |
| 2026-04-25 22:46 | 20.22762 | 10.15214 | 35944 ft | 474 kts | 327° |
| 2026-04-25 22:46 | 20.28740 | 10.12259 | 35945 ft | 474 kts | 327° |
| 2026-04-25 22:47 | 20.34679 | 10.09324 | 35949 ft | 474 kts | 327° |
| 2026-04-25 22:47 | 20.40661 | 10.06364 | 35955 ft | 474 kts | 327° |
| 2026-04-25 22:48 | 20.46645 | 10.03401 | 35953 ft | 474 kts | 327° |
| 2026-04-25 22:48 | 20.52629 | 10.00436 | 35966 ft | 474 kts | 327° |
| 2026-04-25 22:49 | 20.58569 | 9.97487 | 35962 ft | 474 kts | 327° |
| 2026-04-25 22:49 | 20.64548 | 9.94520 | 35965 ft | 474 kts | 327° |
| 2026-04-25 22:50 | 20.70518 | 9.91555 | 35971 ft | 473 kts | 327° |
| 2026-04-25 22:50 | 20.76486 | 9.88588 | 35973 ft | 473 kts | 327° |
| 2026-04-25 22:51 | 20.82410 | 9.85638 | 35982 ft | 473 kts | 327° |
| 2026-04-25 22:51 | 20.88373 | 9.82667 | 35981 ft | 473 kts | 327° |
| 2026-04-25 22:52 | 20.94331 | 9.79698 | 35984 ft | 473 kts | 327° |
| 2026-04-25 22:52 | 20.99282 | 9.77225 | 35993 ft | 472 kts | 327° |
| 2026-04-25 22:53 | 21.06244 | 9.73746 | 35996 ft | 472 kts | 327° |
| 2026-04-25 22:53 | 21.12160 | 9.70790 | 36001 ft | 472 kts | 327° |
| 2026-04-25 22:54 | 21.18111 | 9.67813 | 36004 ft | 472 kts | 326° |
| 2026-04-25 22:54 | 21.24058 | 9.64835 | 36002 ft | 472 kts | 327° |
| 2026-04-25 22:55 | 21.29997 | 9.61855 | 36009 ft | 471 kts | 326° |
| 2026-04-25 22:55 | 21.35930 | 9.58879 | 36009 ft | 471 kts | 326° |
| 2026-04-25 22:56 | 21.41824 | 9.55919 | 36014 ft | 470 kts | 326° |
| 2026-04-25 22:56 | 21.47748 | 9.52942 | 36018 ft | 470 kts | 326° |
| 2026-04-25 22:57 | 21.53670 | 9.49960 | 36018 ft | 470 kts | 326° |
| 2026-04-25 22:57 | 21.59589 | 9.46981 | 36023 ft | 470 kts | 326° |
| 2026-04-25 22:58 | 21.65467 | 9.44020 | 36028 ft | 470 kts | 326° |
| 2026-04-25 22:58 | 21.71382 | 9.41036 | 36064 ft | 470 kts | 326° |
| 2026-04-25 22:59 | 21.77306 | 9.38044 | 36069 ft | 471 kts | 326° |
| 2026-04-25 22:59 | 21.83231 | 9.35048 | 36065 ft | 470 kts | 326° |
| 2026-04-25 23:00 | 21.89155 | 9.32050 | 36070 ft | 470 kts | 326° |
| 2026-04-25 23:00 | 21.95110 | 9.29185 | 36072 ft | 477 kts | 331° |
| 2026-04-25 23:01 | 22.01381 | 9.26814 | 36077 ft | 478 kts | 332° |
| 2026-04-25 23:01 | 22.07674 | 9.24469 | 36076 ft | 479 kts | 332° |
| 2026-04-25 23:02 | 22.13969 | 9.22099 | 36079 ft | 479 kts | 332° |
| 2026-04-25 23:02 | 22.20259 | 9.19713 | 36084 ft | 479 kts | 332° |
| 2026-04-25 23:03 | 22.26510 | 9.17335 | 36082 ft | 480 kts | 332° |
| 2026-04-25 23:03 | 22.32801 | 9.14939 | 36079 ft | 479 kts | 332° |
| 2026-04-25 23:04 | 22.38026 | 9.12945 | 36083 ft | 479 kts | 332° |
| 2026-04-25 23:04 | 22.45370 | 9.10144 | 36082 ft | 478 kts | 332° |
| 2026-04-25 23:05 | 22.51599 | 9.07765 | 36087 ft | 478 kts | 332° |
| 2026-04-25 23:05 | 22.57862 | 9.05373 | 36092 ft | 477 kts | 332° |
| 2026-04-25 23:06 | 22.64125 | 9.02977 | 36093 ft | 477 kts | 332° |
| 2026-04-25 23:06 | 22.70390 | 9.00576 | 36093 ft | 477 kts | 332° |
| 2026-04-25 23:07 | 22.76609 | 8.98191 | 36092 ft | 477 kts | 332° |
| 2026-04-25 23:07 | 22.82874 | 8.95784 | 36092 ft | 478 kts | 332° |
| 2026-04-25 23:08 | 22.89145 | 8.93378 | 36094 ft | 479 kts | 332° |
| 2026-04-25 23:08 | 22.95431 | 8.90963 | 36093 ft | 479 kts | 332° |
| 2026-04-25 23:09 | 23.01682 | 8.88556 | 36095 ft | 480 kts | 332° |
| 2026-04-25 23:09 | 23.07979 | 8.86130 | 36092 ft | 480 kts | 332° |
| 2026-04-25 23:10 | 23.14280 | 8.83700 | 36092 ft | 481 kts | 332° |
| 2026-04-25 23:10 | 23.20579 | 8.81272 | 36092 ft | 480 kts | 332° |
| 2026-04-25 23:11 | 23.26869 | 8.78841 | 36093 ft | 480 kts | 332° |
| 2026-04-25 23:11 | 23.33157 | 8.76405 | 36092 ft | 479 kts | 332° |
| 2026-04-25 23:12 | 23.39400 | 8.73989 | 36092 ft | 479 kts | 332° |
| 2026-04-25 23:12 | 23.45672 | 8.71559 | 36095 ft | 478 kts | 332° |
| 2026-04-25 23:13 | 23.51948 | 8.69124 | 36093 ft | 479 kts | 332° |
| 2026-04-25 23:13 | 23.58226 | 8.66685 | 36093 ft | 479 kts | 332° |
| 2026-04-25 23:14 | 23.64465 | 8.64260 | 36092 ft | 479 kts | 332° |
| 2026-04-25 23:14 | 23.70739 | 8.61818 | 36092 ft | 479 kts | 332° |
| 2026-04-25 23:15 | 23.77015 | 8.59372 | 36093 ft | 479 kts | 332° |
| 2026-04-25 23:15 | 23.83294 | 8.56924 | 36093 ft | 479 kts | 332° |
| 2026-04-25 23:16 | 23.89536 | 8.54490 | 36092 ft | 479 kts | 332° |
| 2026-04-25 23:16 | 23.95821 | 8.52035 | 36091 ft | 480 kts | 332° |
| 2026-04-25 23:17 | 24.02104 | 8.49575 | 36091 ft | 480 kts | 332° |
| 2026-04-25 23:17 | 24.08394 | 8.47109 | 36095 ft | 480 kts | 332° |
| 2026-04-25 23:18 | 24.14649 | 8.44660 | 36093 ft | 481 kts | 332° |
| 2026-04-25 23:18 | 24.20949 | 8.42189 | 36093 ft | 481 kts | 332° |
| 2026-04-25 23:19 | 24.27247 | 8.39715 | 36093 ft | 481 kts | 332° |
| 2026-04-25 23:19 | 24.33542 | 8.37240 | 36101 ft | 481 kts | 332° |
| 2026-04-25 23:20 | 24.39842 | 8.34760 | 36090 ft | 481 kts | 332° |
| 2026-04-25 23:20 | 24.46099 | 8.32292 | 36080 ft | 481 kts | 332° |
| 2026-04-25 23:21 | 24.52398 | 8.29812 | 36085 ft | 481 kts | 332° |
| 2026-04-25 23:21 | 24.58683 | 8.27330 | 36079 ft | 480 kts | 332° |
| 2026-04-25 23:22 | 24.64970 | 8.24843 | 36076 ft | 480 kts | 332° |
| 2026-04-25 23:23 | 24.74349 | 8.21131 | 36071 ft | 480 kts | 332° |
| 2026-04-25 23:23 | 24.80625 | 8.18642 | 36069 ft | 479 kts | 332° |
| 2026-04-25 23:24 | 24.86902 | 8.16152 | 36072 ft | 479 kts | 332° |
| 2026-04-25 23:24 | 24.93175 | 8.13660 | 36061 ft | 479 kts | 332° |
| 2026-04-25 23:25 | 24.99397 | 8.11183 | 36058 ft | 479 kts | 332° |
| 2026-04-25 23:25 | 25.05666 | 8.08691 | 36056 ft | 478 kts | 333° |
| 2026-04-25 23:26 | 25.11920 | 8.06199 | 36051 ft | 478 kts | 333° |
| 2026-04-25 23:26 | 25.18171 | 8.03705 | 36050 ft | 478 kts | 333° |
| 2026-04-25 23:27 | 25.24426 | 8.01206 | 36055 ft | 478 kts | 333° |
| 2026-04-25 23:27 | 25.30640 | 7.98722 | 36034 ft | 478 kts | 333° |
| 2026-04-25 23:28 | 25.36889 | 7.96221 | 36036 ft | 477 kts | 333° |
| 2026-04-25 23:28 | 25.43131 | 7.93720 | 36029 ft | 477 kts | 333° |
| 2026-04-25 23:29 | 25.49361 | 7.91220 | 36028 ft | 476 kts | 333° |
| 2026-04-25 23:29 | 25.55540 | 7.88739 | 36025 ft | 475 kts | 333° |
| 2026-04-25 23:30 | 25.61746 | 7.86240 | 36019 ft | 474 kts | 333° |
| 2026-04-25 23:30 | 25.67956 | 7.83744 | 36026 ft | 475 kts | 333° |
| 2026-04-25 23:31 | 25.74164 | 7.81244 | 36018 ft | 475 kts | 333° |
| 2026-04-25 23:31 | 25.80373 | 7.78740 | 36018 ft | 475 kts | 333° |
| 2026-04-25 23:32 | 25.86540 | 7.76248 | 36017 ft | 475 kts | 333° |
| 2026-04-25 23:32 | 25.92757 | 7.73733 | 36009 ft | 476 kts | 333° |
| 2026-04-25 23:33 | 25.98975 | 7.71217 | 36010 ft | 476 kts | 333° |
| 2026-04-25 23:33 | 26.05160 | 7.68731 | 36016 ft | 475 kts | 333° |
| 2026-04-25 23:34 | 26.11385 | 7.66246 | 36009 ft | 475 kts | 333° |
| 2026-04-25 23:34 | 26.17610 | 7.63762 | 36012 ft | 475 kts | 333° |
| 2026-04-25 23:35 | 26.23823 | 7.61272 | 36001 ft | 475 kts | 333° |
| 2026-04-25 23:35 | 26.30037 | 7.58778 | 36003 ft | 475 kts | 333° |
| 2026-04-25 23:36 | 26.36207 | 7.56299 | 36001 ft | 474 kts | 334° |
| 2026-04-25 23:36 | 26.42416 | 7.53800 | 35998 ft | 474 kts | 334° |
| 2026-04-25 23:37 | 26.48621 | 7.51303 | 35997 ft | 473 kts | 334° |
| 2026-04-25 23:37 | 26.54811 | 7.48809 | 36002 ft | 473 kts | 334° |
| 2026-04-25 23:38 | 26.60955 | 7.46326 | 35995 ft | 473 kts | 334° |
| 2026-04-25 23:38 | 26.67136 | 7.43826 | 36001 ft | 472 kts | 334° |
| 2026-04-25 23:39 | 26.73311 | 7.41332 | 35999 ft | 471 kts | 334° |
| 2026-04-25 23:39 | 26.79481 | 7.38834 | 36002 ft | 471 kts | 334° |
| 2026-04-25 23:40 | 26.85605 | 7.36351 | 35997 ft | 471 kts | 334° |
| 2026-04-25 23:40 | 26.91773 | 7.33846 | 36003 ft | 471 kts | 334° |
| 2026-04-25 23:41 | 26.97931 | 7.31343 | 35994 ft | 470 kts | 334° |
| 2026-04-25 23:41 | 27.04079 | 7.28845 | 35998 ft | 469 kts | 334° |
| 2026-04-25 23:42 | 27.10210 | 7.26346 | 36006 ft | 469 kts | 334° |
| 2026-04-25 23:42 | 27.16302 | 7.23859 | 36014 ft | 469 kts | 334° |
| 2026-04-25 23:43 | 27.22434 | 7.21357 | 36008 ft | 469 kts | 334° |
| 2026-04-25 23:43 | 27.28566 | 7.18847 | 36007 ft | 469 kts | 334° |
| 2026-04-25 23:44 | 27.34694 | 7.16341 | 36015 ft | 469 kts | 334° |
| 2026-04-25 23:44 | 27.40788 | 7.13844 | 35997 ft | 470 kts | 334° |
| 2026-04-25 23:45 | 27.46928 | 7.11325 | 35985 ft | 470 kts | 334° |
| 2026-04-25 23:45 | 27.53067 | 7.08806 | 35992 ft | 469 kts | 334° |
| 2026-04-25 23:46 | 27.59199 | 7.06282 | 35984 ft | 469 kts | 334° |
| 2026-04-25 23:46 | 27.65326 | 7.03760 | 35995 ft | 468 kts | 334° |
| 2026-04-25 23:47 | 27.71398 | 7.01258 | 35983 ft | 468 kts | 334° |
| 2026-04-25 23:47 | 27.77509 | 6.98733 | 35977 ft | 468 kts | 334° |
| 2026-04-25 23:48 | 27.83622 | 6.96207 | 35984 ft | 468 kts | 334° |
| 2026-04-25 23:48 | 27.89736 | 6.93680 | 35980 ft | 468 kts | 334° |
| 2026-04-25 23:49 | 27.95802 | 6.91167 | 35982 ft | 468 kts | 334° |
| 2026-04-25 23:49 | 28.01911 | 6.88632 | 35982 ft | 468 kts | 334° |
| 2026-04-25 23:50 | 28.08023 | 6.86095 | 35982 ft | 467 kts | 334° |
| 2026-04-25 23:50 | 28.14358 | 6.84215 | 35971 ft | 475 kts | 345° |
| 2026-04-25 23:51 | 28.20937 | 6.83576 | 35969 ft | 480 kts | 353° |
| 2026-04-25 23:51 | 28.27615 | 6.83442 | 35962 ft | 480 kts | 353° |
| 2026-04-25 23:52 | 28.34294 | 6.83326 | 35960 ft | 479 kts | 353° |
| 2026-04-25 23:52 | 28.40962 | 6.83175 | 35962 ft | 479 kts | 353° |
| 2026-04-25 23:53 | 28.46495 | 6.83032 | 35961 ft | 479 kts | 353° |
| 2026-04-25 23:53 | 28.54234 | 6.82825 | 35964 ft | 479 kts | 353° |
| 2026-04-25 23:54 | 28.60894 | 6.82648 | 35964 ft | 479 kts | 353° |
| 2026-04-25 23:54 | 28.66429 | 6.82501 | 35964 ft | 479 kts | 353° |
| 2026-04-25 23:55 | 28.73092 | 6.82325 | 35960 ft | 479 kts | 353° |
| 2026-04-25 23:55 | 28.80829 | 6.82119 | 35963 ft | 479 kts | 353° |
| 2026-04-25 23:56 | 28.86364 | 6.81973 | 35962 ft | 479 kts | 353° |
| 2026-04-25 23:56 | 28.93019 | 6.81796 | 35969 ft | 478 kts | 353° |
| 2026-04-25 23:57 | 28.99677 | 6.81619 | 35969 ft | 478 kts | 353° |
| 2026-04-25 23:57 | 29.06329 | 6.81439 | 35977 ft | 477 kts | 353° |
| 2026-04-25 23:58 | 29.12968 | 6.81264 | 35981 ft | 477 kts | 353° |
| 2026-04-25 23:58 | 29.19552 | 6.81091 | 35983 ft | 477 kts | 353° |
| 2026-04-25 23:59 | 29.26181 | 6.80914 | 35978 ft | 476 kts | 353° |
| 2026-04-25 23:59 | 29.32802 | 6.80736 | 35982 ft | 475 kts | 353° |
| 2026-04-26 00:00 | 29.39416 | 6.80556 | 35982 ft | 475 kts | 353° |
| 2026-04-26 00:00 | 29.45983 | 6.80380 | 35979 ft | 475 kts | 353° |
| 2026-04-26 00:01 | 29.52592 | 6.80205 | 35984 ft | 475 kts | 353° |
| 2026-04-26 00:01 | 29.59204 | 6.80026 | 35982 ft | 475 kts | 353° |
| 2026-04-26 00:02 | 29.65827 | 6.79845 | 36146 ft | 478 kts | 353° |
| 2026-04-26 00:02 | 29.69149 | 6.79755 | 36476 ft | 477 kts | 353° |
| 2026-04-26 00:02 | 29.72418 | 6.79669 | 36813 ft | 475 kts | 353° |
| 2026-04-26 00:02 | 29.75716 | 6.79582 | 37175 ft | 473 kts | 353° |
| 2026-04-26 00:03 | 29.79007 | 6.79494 | 37520 ft | 472 kts | 352° |
| 2026-04-26 00:03 | 29.82282 | 6.79407 | 37833 ft | 470 kts | 352° |
| 2026-04-26 00:03 | 29.85559 | 6.79317 | 37906 ft | 473 kts | 352° |
| 2026-04-26 00:04 | 29.92129 | 6.79137 | 37951 ft | 471 kts | 352° |
| 2026-04-26 00:04 | 29.98620 | 6.78966 | 37960 ft | 463 kts | 352° |
| 2026-04-26 00:05 | 30.04991 | 6.78791 | 37960 ft | 459 kts | 352° |
| 2026-04-26 00:05 | 30.11364 | 6.78617 | 37961 ft | 457 kts | 352° |
| 2026-04-26 00:06 | 30.17776 | 6.78438 | 37970 ft | 466 kts | 352° |
| 2026-04-26 00:06 | 30.24317 | 6.78253 | 37979 ft | 475 kts | 352° |
| 2026-04-26 00:07 | 30.30902 | 6.78073 | 37963 ft | 477 kts | 352° |
| 2026-04-26 00:07 | 30.37548 | 6.77895 | 37963 ft | 478 kts | 352° |
| 2026-04-26 00:08 | 30.44191 | 6.77718 | 37951 ft | 477 kts | 352° |
| 2026-04-26 00:08 | 30.50807 | 6.77541 | 37944 ft | 475 kts | 352° |
| 2026-04-26 00:09 | 30.57353 | 6.77358 | 37953 ft | 472 kts | 352° |
| 2026-04-26 00:09 | 30.63905 | 6.77178 | 37948 ft | 470 kts | 352° |
| 2026-04-26 00:10 | 30.70429 | 6.76999 | 37951 ft | 468 kts | 352° |
| 2026-04-26 00:10 | 30.76933 | 6.76821 | 37945 ft | 467 kts | 352° |
| 2026-04-26 00:11 | 30.83431 | 6.76641 | 37945 ft | 467 kts | 352° |
| 2026-04-26 00:11 | 30.89885 | 6.76462 | 37947 ft | 468 kts | 352° |
| 2026-04-26 00:12 | 30.96398 | 6.76281 | 37940 ft | 468 kts | 352° |
| 2026-04-26 00:12 | 31.02919 | 6.76099 | 37946 ft | 469 kts | 352° |
| 2026-04-26 00:13 | 31.09454 | 6.75917 | 37943 ft | 470 kts | 352° |
| 2026-04-26 00:13 | 31.15951 | 6.75739 | 37940 ft | 470 kts | 352° |
| 2026-04-26 00:14 | 31.22489 | 6.75559 | 37949 ft | 470 kts | 352° |
| 2026-04-26 00:14 | 31.29020 | 6.75376 | 37946 ft | 469 kts | 352° |
| 2026-04-26 00:15 | 31.35546 | 6.75195 | 37946 ft | 469 kts | 352° |
| 2026-04-26 00:15 | 31.42020 | 6.75012 | 37940 ft | 468 kts | 352° |
| 2026-04-26 00:16 | 31.48530 | 6.74831 | 37944 ft | 468 kts | 352° |
| 2026-04-26 00:16 | 31.55031 | 6.74650 | 37946 ft | 467 kts | 352° |
| 2026-04-26 00:17 | 31.61532 | 6.74466 | 37940 ft | 467 kts | 352° |
| 2026-04-26 00:17 | 31.67997 | 6.74284 | 37947 ft | 468 kts | 352° |
| 2026-04-26 00:18 | 31.74516 | 6.74101 | 37943 ft | 468 kts | 352° |
| 2026-04-26 00:18 | 31.81033 | 6.73917 | 37949 ft | 468 kts | 352° |
| 2026-04-26 00:19 | 31.87547 | 6.73731 | 37941 ft | 469 kts | 352° |
| 2026-04-26 00:19 | 31.94023 | 6.73550 | 37948 ft | 468 kts | 352° |
| 2026-04-26 00:20 | 32.00537 | 6.73367 | 37950 ft | 468 kts | 352° |
| 2026-04-26 00:20 | 32.07049 | 6.73182 | 37964 ft | 468 kts | 352° |
| 2026-04-26 00:21 | 32.13563 | 6.72999 | 37962 ft | 468 kts | 352° |
| 2026-04-26 00:21 | 32.20024 | 6.72815 | 37969 ft | 467 kts | 352° |
| 2026-04-26 00:22 | 32.26524 | 6.72631 | 37963 ft | 467 kts | 352° |
| 2026-04-26 00:22 | 32.33028 | 6.72447 | 37975 ft | 467 kts | 352° |
| 2026-04-26 00:23 | 32.39525 | 6.72258 | 37971 ft | 467 kts | 352° |
| 2026-04-26 00:23 | 32.46018 | 6.72073 | 37986 ft | 467 kts | 352° |
| 2026-04-26 00:24 | 32.52468 | 6.71886 | 37991 ft | 467 kts | 352° |
| 2026-04-26 00:24 | 32.58961 | 6.71700 | 37993 ft | 467 kts | 352° |
| 2026-04-26 00:25 | 32.65462 | 6.71515 | 37988 ft | 467 kts | 352° |
| 2026-04-26 00:25 | 32.71959 | 6.71327 | 37994 ft | 467 kts | 352° |
| 2026-04-26 00:26 | 32.78458 | 6.71139 | 37993 ft | 467 kts | 352° |
| 2026-04-26 00:26 | 32.84920 | 6.70954 | 38001 ft | 467 kts | 352° |
| 2026-04-26 00:27 | 32.91420 | 6.70769 | 38002 ft | 467 kts | 352° |
| 2026-04-26 00:27 | 32.97928 | 6.70580 | 37999 ft | 468 kts | 352° |
| 2026-04-26 00:28 | 33.04433 | 6.70391 | 38001 ft | 468 kts | 352° |
| 2026-04-26 00:28 | 33.10901 | 6.70203 | 38001 ft | 468 kts | 352° |
| 2026-04-26 00:29 | 33.17411 | 6.70015 | 38008 ft | 468 kts | 352° |
| 2026-04-26 00:29 | 33.23924 | 6.69825 | 38017 ft | 468 kts | 351° |
| 2026-04-26 00:30 | 33.30434 | 6.69636 | 38029 ft | 468 kts | 351° |
| 2026-04-26 00:30 | 33.36939 | 6.69447 | 38021 ft | 468 kts | 352° |
| 2026-04-26 00:31 | 33.43408 | 6.69257 | 38017 ft | 468 kts | 351° |
| 2026-04-26 00:31 | 33.49930 | 6.69066 | 38019 ft | 469 kts | 351° |
| 2026-04-26 00:32 | 33.56462 | 6.68877 | 38033 ft | 469 kts | 351° |
| 2026-04-26 00:32 | 33.66214 | 6.68590 | 38040 ft | 469 kts | 351° |
| 2026-04-26 00:33 | 33.72741 | 6.68395 | 38036 ft | 469 kts | 351° |
| 2026-04-26 00:33 | 33.79275 | 6.68202 | 38039 ft | 470 kts | 351° |
| 2026-04-26 00:34 | 33.85815 | 6.68010 | 38038 ft | 471 kts | 351° |
| 2026-04-26 00:34 | 33.92361 | 6.67817 | 38038 ft | 470 kts | 351° |
| 2026-04-26 00:35 | 33.98854 | 6.67624 | 38049 ft | 470 kts | 351° |
| 2026-04-26 00:35 | 34.05401 | 6.67431 | 38052 ft | 471 kts | 352° |
| 2026-04-26 00:36 | 34.11953 | 6.67236 | 38058 ft | 471 kts | 352° |
| 2026-04-26 00:36 | 34.18507 | 6.67044 | 38056 ft | 471 kts | 352° |
| 2026-04-26 00:37 | 34.25018 | 6.66850 | 38064 ft | 471 kts | 352° |
| 2026-04-26 00:37 | 34.31574 | 6.66654 | 38065 ft | 471 kts | 352° |
| 2026-04-26 00:38 | 34.38128 | 6.66459 | 38066 ft | 471 kts | 352° |
| 2026-04-26 00:38 | 34.44684 | 6.66262 | 38068 ft | 471 kts | 352° |
| 2026-04-26 00:39 | 34.51191 | 6.66067 | 38075 ft | 471 kts | 352° |
| 2026-04-26 00:39 | 34.57743 | 6.65870 | 38073 ft | 471 kts | 352° |
| 2026-04-26 00:40 | 34.64289 | 6.65673 | 38075 ft | 471 kts | 352° |
| 2026-04-26 00:40 | 34.70834 | 6.65477 | 38074 ft | 470 kts | 353° |
| 2026-04-26 00:41 | 34.77383 | 6.65278 | 38080 ft | 471 kts | 353° |
| 2026-04-26 00:41 | 34.83875 | 6.65086 | 38116 ft | 470 kts | 353° |
| 2026-04-26 00:42 | 34.90407 | 6.64899 | 38124 ft | 469 kts | 353° |
| 2026-04-26 00:42 | 34.96932 | 6.64709 | 38129 ft | 469 kts | 353° |
| 2026-04-26 00:43 | 35.03411 | 6.64521 | 38131 ft | 469 kts | 353° |
| 2026-04-26 00:43 | 35.09928 | 6.64333 | 38146 ft | 468 kts | 353° |
| 2026-04-26 00:44 | 35.16445 | 6.64141 | 38151 ft | 469 kts | 353° |
| 2026-04-26 00:44 | 35.22971 | 6.63949 | 38153 ft | 469 kts | 353° |
| 2026-04-26 00:45 | 35.29449 | 6.63761 | 38147 ft | 469 kts | 354° |
| 2026-04-26 00:45 | 35.35977 | 6.63570 | 38155 ft | 469 kts | 354° |
| 2026-04-26 00:46 | 35.42498 | 6.63378 | 38165 ft | 469 kts | 354° |
| 2026-04-26 00:46 | 35.49020 | 6.63186 | 38166 ft | 468 kts | 354° |
| 2026-04-26 00:47 | 35.55537 | 6.62995 | 38163 ft | 468 kts | 354° |
| 2026-04-26 00:47 | 35.62008 | 6.62804 | 38173 ft | 468 kts | 354° |
| 2026-04-26 00:48 | 35.68515 | 6.62612 | 38174 ft | 468 kts | 354° |
| 2026-04-26 00:48 | 35.75031 | 6.62419 | 38172 ft | 468 kts | 354° |
| 2026-04-26 00:49 | 35.81543 | 6.62226 | 38167 ft | 468 kts | 354° |
| 2026-04-26 00:49 | 35.88017 | 6.62033 | 38167 ft | 468 kts | 354° |
| 2026-04-26 00:50 | 35.94531 | 6.61838 | 38162 ft | 468 kts | 354° |
| 2026-04-26 00:50 | 36.01047 | 6.61645 | 38158 ft | 469 kts | 354° |
| 2026-04-26 00:51 | 36.07572 | 6.61450 | 38152 ft | 469 kts | 355° |
| 2026-04-26 00:51 | 36.14051 | 6.61257 | 38165 ft | 469 kts | 355° |
| 2026-04-26 00:52 | 36.20578 | 6.61065 | 38157 ft | 469 kts | 355° |
| 2026-04-26 00:52 | 36.27096 | 6.60866 | 38151 ft | 469 kts | 355° |
| 2026-04-26 00:53 | 36.33625 | 6.61325 | 38162 ft | 472 kts | 4° |
| 2026-04-26 00:53 | 36.40147 | 6.62360 | 38159 ft | 473 kts | 4° |
| 2026-04-26 00:54 | 36.46627 | 6.63406 | 38154 ft | 473 kts | 4° |
| 2026-04-26 00:54 | 36.53152 | 6.64420 | 38150 ft | 473 kts | 4° |
| 2026-04-26 00:55 | 36.59678 | 6.65420 | 38142 ft | 472 kts | 4° |
| 2026-04-26 00:55 | 36.66206 | 6.66415 | 38127 ft | 473 kts | 4° |
| 2026-04-26 00:56 | 36.72685 | 6.67404 | 38131 ft | 472 kts | 4° |
| 2026-04-26 00:56 | 36.79206 | 6.68401 | 38124 ft | 472 kts | 4° |
| 2026-04-26 00:57 | 36.85726 | 6.69404 | 38127 ft | 472 kts | 5° |
| 2026-04-26 00:57 | 36.92243 | 6.70408 | 38129 ft | 472 kts | 5° |
| 2026-04-26 00:58 | 36.98718 | 6.71403 | 38129 ft | 472 kts | 5° |
| 2026-04-26 00:58 | 37.05229 | 6.72407 | 38128 ft | 471 kts | 5° |
| 2026-04-26 00:59 | 37.11740 | 6.73414 | 38121 ft | 471 kts | 5° |
| 2026-04-26 00:59 | 37.18247 | 6.74420 | 38119 ft | 471 kts | 5° |
| 2026-04-26 01:00 | 37.24706 | 6.75423 | 38120 ft | 471 kts | 5° |
| 2026-04-26 01:00 | 37.31219 | 6.76436 | 38089 ft | 472 kts | 5° |
| 2026-04-26 01:01 | 37.37730 | 6.77450 | 38082 ft | 471 kts | 5° |
| 2026-04-26 01:01 | 37.44235 | 6.78463 | 38085 ft | 471 kts | 5° |
| 2026-04-26 01:02 | 37.50692 | 6.79472 | 38080 ft | 470 kts | 6° |
| 2026-04-26 01:02 | 37.57190 | 6.80488 | 38083 ft | 470 kts | 6° |
| 2026-04-26 01:03 | 37.63684 | 6.81506 | 38086 ft | 470 kts | 6° |
| 2026-04-26 01:03 | 37.70177 | 6.82524 | 38081 ft | 470 kts | 6° |
| 2026-04-26 01:04 | 37.76630 | 6.83540 | 38082 ft | 470 kts | 6° |
| 2026-04-26 01:04 | 37.83122 | 6.84565 | 38087 ft | 470 kts | 6° |
| 2026-04-26 01:05 | 37.89617 | 6.85592 | 38089 ft | 470 kts | 6° |
| 2026-04-26 01:05 | 37.96109 | 6.86616 | 38095 ft | 470 kts | 6° |
| 2026-04-26 01:06 | 38.02605 | 6.87643 | 38092 ft | 471 kts | 6° |
| 2026-04-26 01:06 | 38.09054 | 6.88665 | 38092 ft | 470 kts | 6° |
| 2026-04-26 01:07 | 38.15550 | 6.89701 | 38090 ft | 470 kts | 6° |
| 2026-04-26 01:07 | 38.22035 | 6.90732 | 38093 ft | 469 kts | 6° |
| 2026-04-26 01:08 | 38.28513 | 6.91765 | 38090 ft | 469 kts | 6° |
| 2026-04-26 01:08 | 38.34942 | 6.92795 | 38092 ft | 469 kts | 6° |
| 2026-04-26 01:09 | 38.41405 | 6.93831 | 38100 ft | 468 kts | 6° |
| 2026-04-26 01:09 | 38.47865 | 6.94869 | 38102 ft | 468 kts | 6° |
| 2026-04-26 01:10 | 38.54320 | 6.95904 | 38097 ft | 467 kts | 6° |
| 2026-04-26 01:10 | 38.60726 | 6.96934 | 38104 ft | 467 kts | 6° |
| 2026-04-26 01:11 | 38.67173 | 6.97975 | 38101 ft | 467 kts | 6° |
| 2026-04-26 01:11 | 38.73623 | 6.99016 | 38103 ft | 467 kts | 6° |
| 2026-04-26 01:12 | 38.80074 | 7.00062 | 38107 ft | 468 kts | 6° |
| 2026-04-26 01:12 | 38.86490 | 7.01102 | 38107 ft | 467 kts | 6° |
| 2026-04-26 01:13 | 38.92941 | 7.02151 | 38111 ft | 467 kts | 6° |
| 2026-04-26 01:13 | 38.99400 | 7.03201 | 38111 ft | 468 kts | 6° |
| 2026-04-26 01:14 | 39.05878 | 7.03896 | 38113 ft | 467 kts | 3° |
| 2026-04-26 01:14 | 39.12353 | 7.04403 | 38109 ft | 466 kts | 2° |
| 2026-04-26 01:15 | 39.18775 | 7.04911 | 38111 ft | 465 kts | 3° |
| 2026-04-26 01:15 | 39.25238 | 7.05452 | 38111 ft | 465 kts | 3° |
| 2026-04-26 01:16 | 39.31701 | 7.06007 | 38113 ft | 465 kts | 3° |
| 2026-04-26 01:16 | 39.38160 | 7.06566 | 38121 ft | 465 kts | 3° |
| 2026-04-26 01:17 | 39.44572 | 7.07117 | 38127 ft | 465 kts | 3° |
| 2026-04-26 01:17 | 39.51028 | 7.07675 | 38131 ft | 465 kts | 3° |
| 2026-04-26 01:18 | 39.57481 | 7.08232 | 38130 ft | 464 kts | 3° |
| 2026-04-26 01:18 | 39.63929 | 7.08790 | 38130 ft | 464 kts | 3° |
| 2026-04-26 01:19 | 39.70330 | 7.09346 | 38130 ft | 464 kts | 3° |
| 2026-04-26 01:19 | 39.76773 | 7.09907 | 38128 ft | 464 kts | 3° |
| 2026-04-26 01:20 | 39.83216 | 7.10467 | 38130 ft | 464 kts | 3° |
| 2026-04-26 01:20 | 39.89660 | 7.11029 | 38119 ft | 464 kts | 3° |
| 2026-04-26 01:21 | 39.96105 | 7.11593 | 38121 ft | 465 kts | 3° |
| 2026-04-26 01:21 | 40.02515 | 7.12154 | 38120 ft | 464 kts | 3° |
| 2026-04-26 01:22 | 40.08959 | 7.12719 | 38120 ft | 464 kts | 3° |
| 2026-04-26 01:22 | 40.15402 | 7.13286 | 38119 ft | 464 kts | 3° |
| 2026-04-26 01:23 | 40.21839 | 7.13855 | 38119 ft | 464 kts | 3° |
| 2026-04-26 01:23 | 40.28275 | 7.14423 | 38120 ft | 463 kts | 3° |
| 2026-04-26 01:24 | 40.34668 | 7.14988 | 38121 ft | 464 kts | 3° |
| 2026-04-26 01:24 | 40.41104 | 7.15557 | 38120 ft | 464 kts | 3° |
| 2026-04-26 01:25 | 40.47539 | 7.16131 | 38121 ft | 463 kts | 3° |
| 2026-04-26 01:25 | 40.53967 | 7.16701 | 38122 ft | 463 kts | 3° |
| 2026-04-26 01:26 | 40.60350 | 7.17269 | 38130 ft | 463 kts | 3° |
| 2026-04-26 01:26 | 40.66775 | 7.17844 | 38130 ft | 463 kts | 3° |
| 2026-04-26 01:27 | 40.73200 | 7.18419 | 38129 ft | 463 kts | 3° |
| 2026-04-26 01:27 | 40.79628 | 7.18995 | 38130 ft | 463 kts | 3° |
| 2026-04-26 01:28 | 40.86049 | 7.19672 | 38122 ft | 462 kts | 10° |
| 2026-04-26 01:28 | 40.89132 | 7.20877 | 38127 ft | 464 kts | 23° |
| 2026-04-26 01:28 | 40.91937 | 7.22869 | 38127 ft | 465 kts | 33° |
| 2026-04-26 01:29 | 40.96728 | 7.28599 | 38128 ft | 466 kts | 44° |
| 2026-04-26 01:29 | 41.01332 | 7.34673 | 38131 ft | 468 kts | 44° |
| 2026-04-26 01:30 | 41.05987 | 7.40728 | 38130 ft | 470 kts | 43° |
| 2026-04-26 01:30 | 41.10681 | 7.46772 | 38130 ft | 471 kts | 43° |
| 2026-04-26 01:31 | 41.15360 | 7.52790 | 38130 ft | 472 kts | 43° |
| 2026-04-26 01:31 | 41.20063 | 7.58855 | 38128 ft | 471 kts | 43° |
| 2026-04-26 01:32 | 41.24755 | 7.64925 | 38128 ft | 470 kts | 43° |
| 2026-04-26 01:32 | 41.29436 | 7.70992 | 38130 ft | 470 kts | 43° |
| 2026-04-26 01:33 | 41.34079 | 7.77022 | 38130 ft | 469 kts | 43° |
| 2026-04-26 01:33 | 41.38784 | 7.83033 | 38126 ft | 468 kts | 39° |
| 2026-04-26 01:34 | 41.44172 | 7.87839 | 38134 ft | 466 kts | 26° |
| 2026-04-26 01:34 | 41.50106 | 7.91240 | 38133 ft | 464 kts | 20° |
| 2026-04-26 01:35 | 41.56083 | 7.94362 | 38129 ft | 465 kts | 20° |
| 2026-04-26 01:35 | 41.62097 | 7.97546 | 38129 ft | 465 kts | 20° |
| 2026-04-26 01:36 | 41.68107 | 8.00778 | 38131 ft | 466 kts | 21° |
| 2026-04-26 01:37 | 41.77130 | 8.05667 | 38121 ft | 467 kts | 21° |
| 2026-04-26 01:37 | 41.83111 | 8.08914 | 38118 ft | 467 kts | 21° |
| 2026-04-26 01:38 | 41.89131 | 8.12191 | 38121 ft | 467 kts | 21° |
| 2026-04-26 01:38 | 41.95154 | 8.15471 | 38122 ft | 467 kts | 21° |
| 2026-04-26 01:39 | 42.01175 | 8.18759 | 38129 ft | 467 kts | 21° |
| 2026-04-26 01:39 | 42.07192 | 8.22054 | 38129 ft | 467 kts | 21° |
| 2026-04-26 01:40 | 42.13168 | 8.25329 | 38130 ft | 467 kts | 21° |
| 2026-04-26 01:40 | 42.19181 | 8.28634 | 38130 ft | 467 kts | 21° |
| 2026-04-26 01:41 | 42.25198 | 8.31947 | 38129 ft | 467 kts | 21° |
| 2026-04-26 01:41 | 42.31211 | 8.35265 | 38129 ft | 467 kts | 21° |
| 2026-04-26 01:42 | 42.37177 | 8.38563 | 38128 ft | 466 kts | 21° |
| 2026-04-26 01:42 | 42.43179 | 8.41893 | 38129 ft | 466 kts | 21° |
| 2026-04-26 01:43 | 42.49183 | 8.45226 | 38129 ft | 467 kts | 21° |
| 2026-04-26 01:43 | 42.55185 | 8.48567 | 38131 ft | 466 kts | 21° |
| 2026-04-26 01:44 | 42.61188 | 8.51919 | 38128 ft | 467 kts | 21° |
| 2026-04-26 01:44 | 42.67152 | 8.55253 | 38129 ft | 467 kts | 21° |
| 2026-04-26 01:45 | 42.73159 | 8.58619 | 38131 ft | 467 kts | 21° |
| 2026-04-26 01:45 | 42.79173 | 8.61995 | 38127 ft | 467 kts | 21° |
| 2026-04-26 01:46 | 42.85181 | 8.65375 | 38131 ft | 467 kts | 21° |
| 2026-04-26 01:46 | 42.91152 | 8.68742 | 38129 ft | 468 kts | 21° |
| 2026-04-26 01:47 | 42.97165 | 8.72129 | 38128 ft | 467 kts | 21° |
| 2026-04-26 01:47 | 43.03177 | 8.75523 | 38129 ft | 468 kts | 21° |
| 2026-04-26 01:48 | 43.09190 | 8.78927 | 38131 ft | 468 kts | 21° |
| 2026-04-26 01:48 | 43.15207 | 8.82341 | 38130 ft | 468 kts | 21° |
| 2026-04-26 01:49 | 43.21184 | 8.85741 | 38129 ft | 468 kts | 21° |
| 2026-04-26 01:49 | 43.27203 | 8.89170 | 38130 ft | 468 kts | 21° |
| 2026-04-26 01:50 | 43.33222 | 8.92606 | 38129 ft | 469 kts | 21° |
| 2026-04-26 01:50 | 43.39418 | 8.95229 | 38131 ft | 465 kts | 8° |
| 2026-04-26 01:51 | 43.45831 | 8.95948 | 38133 ft | 461 kts | 358° |
| 2026-04-26 01:51 | 43.52214 | 8.95846 | 38127 ft | 462 kts | 358° |
| 2026-04-26 01:52 | 43.58644 | 8.95795 | 38125 ft | 463 kts | 358° |
| 2026-04-26 01:52 | 43.65088 | 8.95791 | 38120 ft | 463 kts | 358° |
| 2026-04-26 01:53 | 43.71528 | 8.95635 | 38121 ft | 463 kts | 356° |
| 2026-04-26 01:53 | 43.77926 | 8.95413 | 38121 ft | 463 kts | 356° |
| 2026-04-26 01:54 | 43.84363 | 8.95204 | 38119 ft | 463 kts | 357° |
| 2026-04-26 01:54 | 43.90799 | 8.95008 | 38119 ft | 462 kts | 357° |
| 2026-04-26 01:55 | 43.97227 | 8.94819 | 38121 ft | 462 kts | 357° |
| 2026-04-26 01:55 | 44.03654 | 8.94630 | 38121 ft | 462 kts | 356° |
| 2026-04-26 01:56 | 44.10035 | 8.94443 | 38118 ft | 461 kts | 356° |
| 2026-04-26 01:56 | 44.16449 | 8.94253 | 38109 ft | 461 kts | 356° |
| 2026-04-26 01:57 | 44.22857 | 8.94063 | 38112 ft | 460 kts | 356° |
| 2026-04-26 01:57 | 44.29249 | 8.93872 | 38105 ft | 459 kts | 356° |
| 2026-04-26 01:58 | 44.35636 | 8.93682 | 38101 ft | 459 kts | 356° |
| 2026-04-26 01:58 | 44.41976 | 8.93493 | 38102 ft | 459 kts | 356° |
| 2026-04-26 01:59 | 44.48357 | 8.93302 | 38107 ft | 459 kts | 356° |
| 2026-04-26 01:59 | 44.54744 | 8.93109 | 38099 ft | 459 kts | 356° |
| 2026-04-26 02:00 | 44.61130 | 8.92917 | 38101 ft | 459 kts | 356° |
| 2026-04-26 02:00 | 44.67476 | 8.92724 | 38105 ft | 459 kts | 356° |
| 2026-04-26 02:01 | 44.73864 | 8.92531 | 38098 ft | 460 kts | 356° |
| 2026-04-26 02:01 | 44.80261 | 8.92339 | 38088 ft | 459 kts | 356° |
| 2026-04-26 02:02 | 44.81895 | 8.92290 | 38089 ft | 459 kts | 356° |
| 2026-04-26 02:28 | 44.83207 | 8.92251 | 38095 ft | 459 kts | 356° |
| 2026-04-26 02:29 | 44.89592 | 8.92055 | 38091 ft | 459 kts | 356° |
| 2026-04-26 02:29 | 44.95981 | 8.91860 | 38081 ft | 459 kts | 356° |
| 2026-04-26 02:30 | 45.02360 | 8.91666 | 38078 ft | 458 kts | 356° |
| 2026-04-26 02:30 | 45.08733 | 8.91471 | 38065 ft | 458 kts | 356° |
| 2026-04-26 02:31 | 45.15064 | 8.91277 | 38065 ft | 458 kts | 356° |
| 2026-04-26 02:31 | 45.21432 | 8.91081 | 38065 ft | 457 kts | 357° |
| 2026-04-26 02:32 | 45.27792 | 8.90888 | 38065 ft | 457 kts | 357° |
| 2026-04-26 02:32 | 45.34151 | 8.90691 | 38066 ft | 457 kts | 356° |
| 2026-04-26 02:33 | 45.40461 | 8.90494 | 38065 ft | 456 kts | 357° |
| 2026-04-26 02:33 | 45.46808 | 8.90295 | 38065 ft | 456 kts | 357° |
| 2026-04-26 02:34 | 45.53161 | 8.90100 | 38060 ft | 456 kts | 357° |
| 2026-04-26 02:34 | 45.59504 | 8.89903 | 38057 ft | 456 kts | 357° |
| 2026-04-26 02:35 | 45.65804 | 8.89706 | 38057 ft | 455 kts | 357° |
| 2026-04-26 02:35 | 45.72138 | 8.89509 | 38056 ft | 455 kts | 357° |
| 2026-04-26 02:36 | 45.78474 | 8.89311 | 38059 ft | 456 kts | 357° |
| 2026-04-26 02:36 | 45.84816 | 8.89109 | 38065 ft | 456 kts | 357° |
| 2026-04-26 02:37 | 45.91119 | 8.88909 | 38069 ft | 456 kts | 357° |
| 2026-04-26 02:37 | 45.97459 | 8.88709 | 38073 ft | 456 kts | 357° |
| 2026-04-26 02:38 | 46.03800 | 8.88511 | 38078 ft | 456 kts | 356° |
| 2026-04-26 02:38 | 46.10138 | 8.88308 | 38070 ft | 456 kts | 356° |
| 2026-04-26 02:39 | 46.16476 | 8.88092 | 38077 ft | 455 kts | 355° |
| 2026-04-26 02:39 | 46.22727 | 8.87287 | 38092 ft | 454 kts | 352° |
| 2026-04-26 02:40 | 46.29005 | 8.86293 | 38075 ft | 453 kts | 352° |
| 2026-04-26 02:40 | 46.35272 | 8.85324 | 38079 ft | 453 kts | 352° |
| 2026-04-26 02:41 | 46.41533 | 8.84378 | 38097 ft | 452 kts | 352° |
| 2026-04-26 02:41 | 46.47764 | 8.83438 | 37882 ft | 455 kts | 352° |
| 2026-04-26 02:41 | 46.50911 | 8.82964 | 37607 ft | 454 kts | 352° |
| 2026-04-26 02:42 | 46.54044 | 8.82492 | 37122 ft | 451 kts | 352° |
| 2026-04-26 02:42 | 46.57146 | 8.82024 | 36620 ft | 446 kts | 352° |
| 2026-04-26 02:42 | 46.60217 | 8.81559 | 36131 ft | 441 kts | 352° |
| 2026-04-26 02:42 | 46.63251 | 8.81100 | 35626 ft | 437 kts | 352° |
| 2026-04-26 02:43 | 46.69245 | 8.80199 | 34631 ft | 430 kts | 352° |
| 2026-04-26 02:43 | 46.70888 | 8.79952 | 34335 ft | 428 kts | 352° |
| 2026-04-26 02:43 | 46.73853 | 8.79504 | 33665 ft | 429 kts | 352° |
| 2026-04-26 02:44 | 46.76783 | 8.79061 | 33012 ft | 429 kts | 352° |
| 2026-04-26 02:44 | 46.79758 | 8.78610 | 32294 ft | 431 kts | 352° |
| 2026-04-26 02:44 | 46.82747 | 8.78156 | 31545 ft | 433 kts | 352° |
| 2026-04-26 02:44 | 46.85747 | 8.77699 | 30820 ft | 434 kts | 352° |
| 2026-04-26 02:45 | 46.88755 | 8.77242 | 30069 ft | 435 kts | 352° |
| 2026-04-26 02:45 | 46.91766 | 8.76784 | 29344 ft | 435 kts | 352° |
| 2026-04-26 02:45 | 46.94774 | 8.76325 | 28584 ft | 434 kts | 353° |
| 2026-04-26 02:45 | 46.97780 | 8.75859 | 27847 ft | 433 kts | 352° |
| 2026-04-26 02:46 | 47.00731 | 8.75384 | 27104 ft | 432 kts | 352° |
| 2026-04-26 02:46 | 47.03716 | 8.74898 | 26365 ft | 431 kts | 352° |
| 2026-04-26 02:46 | 47.06690 | 8.74416 | 25613 ft | 429 kts | 352° |
| 2026-04-26 02:46 | 47.09643 | 8.73832 | 24877 ft | 427 kts | 349° |
| 2026-04-26 02:47 | 47.12552 | 8.73048 | 24130 ft | 425 kts | 348° |
| 2026-04-26 02:47 | 47.15448 | 8.72211 | 23379 ft | 423 kts | 348° |
| 2026-04-26 02:47 | 47.18326 | 8.71395 | 22638 ft | 420 kts | 348° |
| 2026-04-26 02:47 | 47.21192 | 8.70618 | 21889 ft | 418 kts | 349° |
| 2026-04-26 02:48 | 47.24047 | 8.69863 | 21134 ft | 416 kts | 349° |
| 2026-04-26 02:48 | 47.26885 | 8.69073 | 20374 ft | 414 kts | 346° |
| 2026-04-26 02:48 | 47.29525 | 8.67648 | 19632 ft | 409 kts | 333° |
| 2026-04-26 02:48 | 47.32038 | 8.65700 | 18906 ft | 407 kts | 333° |
| 2026-04-26 02:49 | 47.34568 | 8.63859 | 18240 ft | 404 kts | 334° |
| 2026-04-26 02:49 | 47.37101 | 8.62110 | 17614 ft | 400 kts | 334° |
| 2026-04-26 02:49 | 47.39545 | 8.60196 | 16987 ft | 396 kts | 329° |
| 2026-04-26 02:49 | 47.41887 | 8.58088 | 16372 ft | 393 kts | 328° |
| 2026-04-26 02:50 | 47.44009 | 8.55677 | 15705 ft | 384 kts | 313° |
| 2026-04-26 02:50 | 47.45490 | 8.52414 | 15106 ft | 383 kts | 297° |
| 2026-04-26 02:50 | 47.46370 | 8.48782 | 14555 ft | 381 kts | 283° |
| 2026-04-26 02:50 | 47.46764 | 8.44970 | 14320 ft | 369 kts | 279° |
| 2026-04-26 02:51 | 47.47085 | 8.41276 | 14183 ft | 355 kts | 278° |
| 2026-04-26 02:51 | 47.47392 | 8.37733 | 14064 ft | 342 kts | 279° |
| 2026-04-26 02:51 | 47.47699 | 8.34290 | 13798 ft | 334 kts | 279° |
| 2026-04-26 02:51 | 47.48007 | 8.30916 | 13498 ft | 329 kts | 279° |
| 2026-04-26 02:52 | 47.48317 | 8.27590 | 13169 ft | 325 kts | 279° |
| 2026-04-26 02:52 | 47.48627 | 8.24304 | 12840 ft | 321 kts | 279° |
| 2026-04-26 02:52 | 47.48929 | 8.21100 | 12508 ft | 317 kts | 279° |
| 2026-04-26 02:52 | 47.49231 | 8.17898 | 12182 ft | 313 kts | 279° |
| 2026-04-26 02:53 | 47.49530 | 8.14727 | 11857 ft | 310 kts | 279° |
| 2026-04-26 02:53 | 47.49826 | 8.11594 | 11527 ft | 306 kts | 279° |
| 2026-04-26 02:53 | 47.50117 | 8.08484 | 11194 ft | 303 kts | 279° |
| 2026-04-26 02:53 | 47.50405 | 8.05408 | 10876 ft | 301 kts | 279° |
| 2026-04-26 02:54 | 47.50774 | 8.02412 | 10513 ft | 292 kts | 291° |
| 2026-04-26 02:54 | 47.51866 | 7.99944 | 10180 ft | 287 kts | 318° |
| 2026-04-26 02:54 | 47.53555 | 7.98428 | 9853 ft | 285 kts | 340° |
| 2026-04-26 02:54 | 47.55502 | 7.97969 | 9538 ft | 285 kts | 2° |
| 2026-04-26 02:55 | 47.57410 | 7.98598 | 9214 ft | 287 kts | 24° |
| 2026-04-26 02:55 | 47.59034 | 8.00305 | 8881 ft | 289 kts | 48° |
| 2026-04-26 02:55 | 47.60020 | 8.02868 | 8556 ft | 289 kts | 72° |
| 2026-04-26 02:55 | 47.60270 | 8.05776 | 8239 ft | 280 kts | 89° |
| 2026-04-26 02:56 | 47.60285 | 8.08642 | 7919 ft | 273 kts | 89° |
| 2026-04-26 02:56 | 47.60290 | 8.11383 | 7545 ft | 259 kts | 89° |
| 2026-04-26 02:56 | 47.60296 | 8.13997 | 7213 ft | 249 kts | 89° |
| 2026-04-26 02:56 | 47.60305 | 8.16524 | 6872 ft | 244 kts | 89° |
| 2026-04-26 02:57 | 47.60316 | 8.19031 | 6559 ft | 243 kts | 88° |
| 2026-04-26 02:57 | 47.60332 | 8.21493 | 6248 ft | 242 kts | 88° |
| 2026-04-26 02:57 | 47.60348 | 8.23988 | 5915 ft | 242 kts | 88° |
| 2026-04-26 02:57 | 47.60366 | 8.26481 | 5575 ft | 243 kts | 88° |
| 2026-04-26 02:58 | 47.60383 | 8.28987 | 5233 ft | 243 kts | 88° |
| 2026-04-26 02:58 | 47.60400 | 8.31489 | 4974 ft | 240 kts | 88° |
| 2026-04-26 02:58 | 47.60416 | 8.33922 | 4757 ft | 234 kts | 88° |
| 2026-04-26 02:58 | 47.60212 | 8.36253 | 4458 ft | 228 kts | 112° |
| 2026-04-26 02:59 | 47.59320 | 8.38093 | 4198 ft | 212 kts | 131° |
| 2026-04-26 02:59 | 47.58372 | 8.39604 | 4074 ft | 189 kts | 133° |
| 2026-04-26 02:59 | 47.57455 | 8.40922 | 3848 ft | 185 kts | 136° |
| 2026-04-26 02:59 | 47.56529 | 8.42202 | 3639 ft | 181 kts | 136° |
| 2026-04-26 03:00 | 47.55616 | 8.43457 | 3385 ft | 175 kts | 136° |
| 2026-04-26 03:00 | 47.54742 | 8.44654 | 3151 ft | 168 kts | 136° |
| 2026-04-26 03:00 | 47.53884 | 8.45830 | 2934 ft | 168 kts | 137° |
| 2026-04-26 03:00 | 47.53057 | 8.46963 | 2730 ft | 154 kts | 137° |
| 2026-04-26 03:01 | 47.52291 | 8.48012 | 2510 ft | 147 kts | 137° |
| 2026-04-26 03:01 | 47.51540 | 8.49043 | 2334 ft | 148 kts | 137° |
| 2026-04-26 03:01 | 47.50801 | 8.50071 | 2172 ft | 147 kts | 136° |
| 2026-04-26 03:01 | 47.50035 | 8.51104 | 1959 ft | 149 kts | 137° |
| 2026-04-26 03:02 | 47.49284 | 8.52138 | 1737 ft | 146 kts | 136° |
| 2026-04-26 03:02 | 47.48539 | 8.53156 | 1536 ft | 146 kts | 137° |
| 2026-04-26 03:02 | 47.47800 | 8.54162 | 1415 ft | 139 kts | 137° |
| 2026-04-26 03:02 | 47.47176 | 8.55020 | 1412 ft | 101 kts | 137° |
| 2026-04-26 03:03 | 47.46772 | 8.55572 | 1415 ft | 57 kts | 137° |
| 2026-04-26 03:03 | 47.46581 | 8.55828 | 1416 ft | 27 kts | 138° |
| 2026-04-26 03:03 | 47.46435 | 8.55935 | 1411 ft | 21 kts | 163° |
| 2026-04-26 03:03 | 47.46323 | 8.55978 | 1411 ft | 13 kts | 167° |
| 2026-04-26 03:04 | 47.46306 | 8.55983 | 1406 ft | 2 kts | 168° |
| 2026-04-26 03:04 | 47.46283 | 8.55990 | 1404 ft | 5 kts | 168° |
| 2026-04-26 03:04 | 47.46244 | 8.55999 | 1403 ft | 6 kts | 182° |
| 2026-04-26 03:04 | 47.46227 | 8.55945 | 1410 ft | 7 kts | 277° |
| 2026-04-26 03:05 | 47.46234 | 8.55869 | 1404 ft | 8 kts | 277° |
| 2026-04-26 03:05 | 47.46234 | 8.55826 | 1407 ft | 3 kts | 261° |
| 2026-04-26 03:05 | 47.46219 | 8.55797 | 1402 ft | 4 kts | 205° |
| 2026-04-26 03:05 | 47.46188 | 8.55787 | 1410 ft | 3 kts | 189° |
| 2026-04-26 03:06 | 47.46165 | 8.55782 | 1411 ft | 3 kts | 187° |
| 2026-04-26 03:06 | 47.46158 | 8.55781 | 1402 ft | 0 kts | 187° |